PWSweather.com
Personal Weather Stations
Station Observations
RODAVGI
Xerovouni, RodavgiGR 47046

XerovouniRodavgiGR 47046

Lat: 39.3236, Lon: 20.9975

Elevation: 2287

Station Type: Ambient Weather WS-2902A

Latest ConditionsUpdated 11:08:00 AM GMT+02:02 Friday, Feb 22, 2019
Currently Today's Max Today's Min Today's Average
Temperature 48.6°F9.2°C 50.4°F10.2°C 40.6°F4.8°C 44.8°F7.1°C
Dew Point 40.3°F4.6°C 41.8°F5.4°C 30.9°F-0.6°C 34.3°F1.3°C
Winds 1.1 mph NE1.8 kmh NE 3.8 mph -6.1 kmh - - 1.3 mph 2.1 kmh
Wind Gusts 1.1 mph1.8 kmh 4.5 mph7.2 kmh - -
Humidity 73% 79% 54% 67%
Pressure 29.83 in1010.2 mb 29.92 in1013.2 mb 29.82 in1009.8 mb -
Hour Temp Dew Point Humidity Winds Wind Gusts Pressure Precip Precip Rate Daily Precip Total
11:08 AM 48.6°F9.2°C 40.3°F4.6°C 73% 1.1 mph NE1.8 kmh NE 1.1 mph1.8 kmh 29.83 in1010.2 mb 0.00 in0.0 mm 0.00 in0.0 mm 0.00 in0.0 mm
11:07 AM 48.6°F9.2°C 40.0°F4.4°C 72% 1.8 mph NE2.9 kmh NE 2.2 mph3.5 kmh 29.83 in1010.2 mb 0.00 in0.0 mm 0.00 in0.0 mm 0.00 in0.0 mm
11:06 AM 48.0°F8.9°C 39.8°F4.3°C 73% 1.3 mph NE2.1 kmh NE 2.2 mph3.5 kmh 29.82 in1009.8 mb 0.00 in0.0 mm 0.00 in0.0 mm 0.00 in0.0 mm
11:04 AM 47.8°F8.8°C 39.2°F4.0°C 72% 2.0 mph NE3.2 kmh NE 3.4 mph5.5 kmh 29.82 in1009.8 mb 0.00 in0.0 mm 0.00 in0.0 mm 0.00 in0.0 mm
11:03 AM 47.8°F8.8°C 39.9°F4.4°C 74% 2.2 mph ENE3.5 kmh ENE 2.2 mph3.5 kmh 29.82 in1009.8 mb 0.00 in0.0 mm 0.00 in0.0 mm 0.00 in0.0 mm
11:02 AM 48.4°F9.1°C 40.2°F4.6°C 73% 3.4 mph NNE5.5 kmh NNE 3.4 mph5.5 kmh 29.82 in1009.8 mb 0.00 in0.0 mm 0.00 in0.0 mm 0.00 in0.0 mm
11:01 AM 48.7°F9.3°C 40.1°F4.5°C 72% 3.8 mph ENE6.1 kmh ENE 4.5 mph7.2 kmh 29.82 in1009.8 mb 0.00 in0.0 mm 0.00 in0.0 mm 0.00 in0.0 mm
10:59 AM 48.6°F9.2°C 39.6°F4.2°C 71% Calm Calm -- 29.82 in1009.8 mb 0.00 in0.0 mm 0.00 in0.0 mm 0.00 in0.0 mm
10:57 AM 50.2°F10.1°C 41.2°F5.1°C 71% 3.1 mph E5.0 kmh E 3.4 mph5.5 kmh 29.82 in1009.8 mb 0.00 in0.0 mm 0.00 in0.0 mm 0.00 in0.0 mm
10:56 AM 50.2°F10.1°C 40.4°F4.7°C 69% Calm Calm -- 29.82 in1009.8 mb 0.00 in0.0 mm 0.00 in0.0 mm 0.00 in0.0 mm
10:54 AM 50.4°F10.2°C 40.2°F4.6°C 68% 1.1 mph S1.8 kmh S 1.1 mph1.8 kmh 29.83 in1010.2 mb 0.00 in0.0 mm 0.00 in0.0 mm 0.00 in0.0 mm
10:53 AM 50.2°F10.1°C 40.4°F4.7°C 69% 2.7 mph ESE4.3 kmh ESE 3.4 mph5.5 kmh 29.83 in1010.2 mb 0.00 in0.0 mm 0.00 in0.0 mm 0.00 in0.0 mm
10:52 AM 50.2°F10.1°C 40.1°F4.5°C 68% 0.9 mph SSE1.4 kmh SSE 2.2 mph3.5 kmh 29.82 in1009.8 mb 0.00 in0.0 mm 0.00 in0.0 mm 0.00 in0.0 mm
10:51 AM 49.5°F9.7°C 39.8°F4.3°C 69% 0.2 mph SE0.3 kmh SE 1.1 mph1.8 kmh 29.83 in1010.2 mb 0.00 in0.0 mm 0.00 in0.0 mm 0.00 in0.0 mm
10:50 AM 49.1°F9.5°C 39.7°F4.3°C 70% Calm Calm -- 29.82 in1009.8 mb 0.00 in0.0 mm 0.00 in0.0 mm 0.00 in0.0 mm
10:49 AM 49.1°F9.5°C 40.1°F4.5°C 71% 0.7 mph E1.1 kmh E 1.1 mph1.8 kmh 29.82 in1009.8 mb 0.00 in0.0 mm 0.00 in0.0 mm 0.00 in0.0 mm
10:48 AM 49.1°F9.5°C 39.7°F4.3°C 70% 2.2 mph E3.5 kmh E 3.4 mph5.5 kmh 29.83 in1010.2 mb 0.00 in0.0 mm 0.00 in0.0 mm 0.00 in0.0 mm
10:47 AM 48.7°F9.3°C 39.7°F4.3°C 71% 2.2 mph ESE3.5 kmh ESE 4.5 mph7.2 kmh 29.83 in1010.2 mb 0.00 in0.0 mm 0.00 in0.0 mm 0.00 in0.0 mm
10:45 AM 48.9°F9.4°C 39.6°F4.2°C 70% 1.8 mph ENE2.9 kmh ENE 2.2 mph3.5 kmh 29.83 in1010.2 mb 0.00 in0.0 mm 0.00 in0.0 mm 0.00 in0.0 mm
10:42 AM 49.1°F9.5°C 39.4°F4.1°C 69% 2.2 mph ENE3.5 kmh ENE 2.2 mph3.5 kmh 29.83 in1010.2 mb 0.00 in0.0 mm 0.00 in0.0 mm 0.00 in0.0 mm
10:41 AM 48.9°F9.4°C 39.2°F4.0°C 69% Calm Calm -- 29.82 in1009.8 mb 0.00 in0.0 mm 0.00 in0.0 mm 0.00 in0.0 mm
10:39 AM 48.7°F9.3°C 39.4°F4.1°C 70% 0.7 mph SE1.1 kmh SE 1.1 mph1.8 kmh 29.83 in1010.2 mb 0.00 in0.0 mm 0.00 in0.0 mm 0.00 in0.0 mm
10:38 AM 48.7°F9.3°C 39.0°F3.9°C 69% 2.5 mph ESE4.0 kmh ESE 3.4 mph5.5 kmh 29.82 in1009.8 mb 0.00 in0.0 mm 0.00 in0.0 mm 0.00 in0.0 mm
10:37 AM 48.7°F9.3°C 39.4°F4.1°C 70% 0.9 mph ESE1.4 kmh ESE 2.2 mph3.5 kmh 29.83 in1010.2 mb 0.00 in0.0 mm 0.00 in0.0 mm 0.00 in0.0 mm
10:36 AM 48.7°F9.3°C 39.4°F4.1°C 70% 0.2 mph E0.3 kmh E 1.1 mph1.8 kmh 29.83 in1010.2 mb 0.00 in0.0 mm 0.00 in0.0 mm 0.00 in0.0 mm
10:35 AM 48.9°F9.4°C 39.9°F4.4°C 71% 0.9 mph E1.4 kmh E 1.1 mph1.8 kmh 29.83 in1010.2 mb 0.00 in0.0 mm 0.00 in0.0 mm 0.00 in0.0 mm
10:33 AM 48.9°F9.4°C 39.9°F4.4°C 71% 1.8 mph E2.9 kmh E 2.2 mph3.5 kmh 29.83 in1010.2 mb 0.00 in0.0 mm 0.00 in0.0 mm 0.00 in0.0 mm
10:31 AM 48.6°F9.2°C 39.6°F4.2°C 71% 2.7 mph ENE4.3 kmh ENE 3.4 mph5.5 kmh 29.83 in1010.2 mb 0.00 in0.0 mm 0.00 in0.0 mm 0.00 in0.0 mm
10:30 AM 48.2°F9.0°C 39.6°F4.2°C 72% Calm Calm -- 29.83 in1010.2 mb 0.00 in0.0 mm 0.00 in0.0 mm 0.00 in0.0 mm
10:29 AM 48.2°F9.0°C 40.3°F4.6°C 74% 2.0 mph SE3.2 kmh SE 3.4 mph5.5 kmh 29.84 in1010.5 mb 0.00 in0.0 mm 0.00 in0.0 mm 0.00 in0.0 mm
10:27 AM 48.2°F9.0°C 39.6°F4.2°C 72% 2.0 mph ENE3.2 kmh ENE 3.4 mph5.5 kmh 29.83 in1010.2 mb 0.00 in0.0 mm 0.00 in0.0 mm 0.00 in0.0 mm
10:26 AM 48.4°F9.1°C 40.2°F4.6°C 73% 2.5 mph SE4.0 kmh SE 3.4 mph5.5 kmh 29.83 in1010.2 mb 0.00 in0.0 mm 0.00 in0.0 mm 0.00 in0.0 mm
10:25 AM 48.4°F9.1°C 40.2°F4.6°C 73% 1.3 mph ESE2.1 kmh ESE 2.2 mph3.5 kmh 29.83 in1010.2 mb 0.00 in0.0 mm 0.00 in0.0 mm 0.00 in0.0 mm
10:24 AM 48.6°F9.2°C 40.7°F4.8°C 74% 2.9 mph E4.7 kmh E 3.4 mph5.5 kmh 29.83 in1010.2 mb 0.00 in0.0 mm 0.00 in0.0 mm 0.00 in0.0 mm
10:23 AM 48.6°F9.2°C 40.7°F4.8°C 74% 0.9 mph S1.4 kmh S 2.2 mph3.5 kmh 29.83 in1010.2 mb 0.00 in0.0 mm 0.00 in0.0 mm 0.00 in0.0 mm
10:22 AM 48.7°F9.3°C 40.8°F4.9°C 74% 2.0 mph SE3.2 kmh SE 2.2 mph3.5 kmh 29.83 in1010.2 mb 0.00 in0.0 mm 0.00 in0.0 mm 0.00 in0.0 mm
10:21 AM 48.7°F9.3°C 40.1°F4.5°C 72% 1.3 mph ESE2.1 kmh ESE 2.2 mph3.5 kmh 29.83 in1010.2 mb 0.00 in0.0 mm 0.00 in0.0 mm 0.00 in0.0 mm
10:20 AM 48.7°F9.3°C 41.1°F5.1°C 75% 0.2 mph ESE0.3 kmh ESE 1.1 mph1.8 kmh 29.83 in1010.2 mb 0.00 in0.0 mm 0.00 in0.0 mm 0.00 in0.0 mm
10:19 AM 48.7°F9.3°C 41.8°F5.4°C 77% 0.9 mph ESE1.4 kmh ESE 1.1 mph1.8 kmh 29.83 in1010.2 mb 0.00 in0.0 mm 0.00 in0.0 mm 0.00 in0.0 mm
10:18 AM 48.2°F9.0°C 40.7°F4.8°C 75% 1.6 mph E2.6 kmh E 2.2 mph3.5 kmh 29.83 in1010.2 mb 0.00 in0.0 mm 0.00 in0.0 mm 0.00 in0.0 mm
10:17 AM 48.0°F8.9°C 41.8°F5.4°C 79% 0.7 mph ESE1.1 kmh ESE 1.1 mph1.8 kmh 29.83 in1010.2 mb 0.00 in0.0 mm 0.00 in0.0 mm 0.00 in0.0 mm
10:15 AM 48.0°F8.9°C 40.5°F4.7°C 75% 0.2 mph E0.3 kmh E 1.1 mph1.8 kmh 29.83 in1010.2 mb 0.00 in0.0 mm 0.00 in0.0 mm 0.00 in0.0 mm
10:14 AM 48.2°F9.0°C 40.7°F4.8°C 75% 0.4 mph E0.6 kmh E 1.1 mph1.8 kmh 29.83 in1010.2 mb 0.00 in0.0 mm 0.00 in0.0 mm 0.00 in0.0 mm
10:13 AM 48.4°F9.1°C 41.5°F5.3°C 77% 1.3 mph E2.1 kmh E 2.2 mph3.5 kmh 29.84 in1010.5 mb 0.00 in0.0 mm 0.00 in0.0 mm 0.00 in0.0 mm
10:12 AM 48.6°F9.2°C 41.4°F5.2°C 76% 1.1 mph NE1.8 kmh NE 2.2 mph3.5 kmh 29.84 in1010.5 mb 0.00 in0.0 mm 0.00 in0.0 mm 0.00 in0.0 mm
10:11 AM 49.1°F9.5°C 41.2°F5.1°C 74% 0.4 mph ENE0.6 kmh ENE 1.1 mph1.8 kmh 29.84 in1010.5 mb 0.00 in0.0 mm 0.00 in0.0 mm 0.00 in0.0 mm
10:10 AM 49.3°F9.6°C 39.6°F4.2°C 69% 2.2 mph ENE3.5 kmh ENE 2.2 mph3.5 kmh 29.84 in1010.5 mb 0.00 in0.0 mm 0.00 in0.0 mm 0.00 in0.0 mm
10:09 AM 48.7°F9.3°C 40.1°F4.5°C 72% Calm Calm -- 29.83 in1010.2 mb 0.00 in0.0 mm 0.00 in0.0 mm 0.00 in0.0 mm
10:07 AM 48.6°F9.2°C 40.0°F4.4°C 72% 0.2 mph SE0.3 kmh SE 1.1 mph1.8 kmh 29.83 in1010.2 mb 0.00 in0.0 mm 0.00 in0.0 mm 0.00 in0.0 mm
10:05 AM 48.9°F9.4°C 39.2°F4.0°C 69% 1.3 mph SE2.1 kmh SE 2.2 mph3.5 kmh 29.84 in1010.5 mb 0.00 in0.0 mm 0.00 in0.0 mm 0.00 in0.0 mm
10:03 AM 49.1°F9.5°C 38.6°F3.7°C 67% 1.3 mph SE2.1 kmh SE 2.2 mph3.5 kmh 29.83 in1010.2 mb 0.00 in0.0 mm 0.00 in0.0 mm 0.00 in0.0 mm
10:02 AM 48.9°F9.4°C 39.2°F4.0°C 69% 1.1 mph SSE1.8 kmh SSE 1.1 mph1.8 kmh 29.84 in1010.5 mb 0.00 in0.0 mm 0.00 in0.0 mm 0.00 in0.0 mm
10:01 AM 48.6°F9.2°C 37.8°F3.2°C 66% 0.7 mph S1.1 kmh S 1.1 mph1.8 kmh 29.83 in1010.2 mb 0.00 in0.0 mm 0.00 in0.0 mm 0.00 in0.0 mm
10:00 AM 48.4°F9.1°C 36.4°F2.4°C 63% 0.9 mph SE1.4 kmh SE 2.2 mph3.5 kmh 29.84 in1010.5 mb 0.00 in0.0 mm 0.00 in0.0 mm 0.00 in0.0 mm
09:59 AM 48.2°F9.0°C 36.2°F2.3°C 63% 0.2 mph ESE0.3 kmh ESE 1.1 mph1.8 kmh 29.83 in1010.2 mb 0.00 in0.0 mm 0.00 in0.0 mm 0.00 in0.0 mm
09:58 AM 48.2°F9.0°C 35.8°F2.1°C 62% 0.9 mph ESE1.4 kmh ESE 1.1 mph1.8 kmh 29.83 in1010.2 mb 0.00 in0.0 mm 0.00 in0.0 mm 0.00 in0.0 mm
09:57 AM 48.7°F9.3°C 36.3°F2.4°C 62% 1.8 mph E2.9 kmh E 2.2 mph3.5 kmh 29.84 in1010.5 mb 0.00 in0.0 mm 0.00 in0.0 mm 0.00 in0.0 mm
09:55 AM 49.1°F9.5°C 36.2°F2.3°C 61% 1.6 mph SE2.6 kmh SE 2.2 mph3.5 kmh 29.85 in1010.8 mb 0.00 in0.0 mm 0.00 in0.0 mm 0.00 in0.0 mm
09:52 AM 48.7°F9.3°C 38.2°F3.4°C 67% Calm Calm -- 29.84 in1010.5 mb 0.00 in0.0 mm 0.00 in0.0 mm 0.00 in0.0 mm
09:51 AM 48.7°F9.3°C 39.0°F3.9°C 69% 1.1 mph SSE1.8 kmh SSE 1.1 mph1.8 kmh 29.85 in1010.8 mb 0.00 in0.0 mm 0.00 in0.0 mm 0.00 in0.0 mm
09:50 AM 48.4°F9.1°C 38.0°F3.3°C 67% 0.7 mph S1.1 kmh S 1.1 mph1.8 kmh 29.84 in1010.5 mb 0.00 in0.0 mm 0.00 in0.0 mm 0.00 in0.0 mm
09:49 AM 48.4°F9.1°C 38.0°F3.3°C 67% 1.6 mph SE2.6 kmh SE 2.2 mph3.5 kmh 29.83 in1010.2 mb 0.00 in0.0 mm 0.00 in0.0 mm 0.00 in0.0 mm
09:48 AM 48.2°F9.0°C 36.6°F2.6°C 64% 0.9 mph SE1.4 kmh SE 1.1 mph1.8 kmh 29.84 in1010.5 mb 0.00 in0.0 mm 0.00 in0.0 mm 0.00 in0.0 mm
09:47 AM 48.2°F9.0°C 37.0°F2.8°C 65% Calm Calm -- 29.84 in1010.5 mb 0.00 in0.0 mm 0.00 in0.0 mm 0.00 in0.0 mm
09:46 AM 48.2°F9.0°C 36.2°F2.3°C 63% 0.2 mph SE0.3 kmh SE 1.1 mph1.8 kmh 29.84 in1010.5 mb 0.00 in0.0 mm 0.00 in0.0 mm 0.00 in0.0 mm
09:45 AM 47.8°F8.8°C 35.4°F1.9°C 62% 0.2 mph SSE0.3 kmh SSE 1.1 mph1.8 kmh 29.84 in1010.5 mb 0.00 in0.0 mm 0.00 in0.0 mm 0.00 in0.0 mm
09:43 AM 47.8°F8.8°C 36.6°F2.6°C 65% Calm Calm -- 29.84 in1010.5 mb 0.00 in0.0 mm 0.00 in0.0 mm 0.00 in0.0 mm
09:42 AM 47.8°F8.8°C 37.0°F2.8°C 66% 2.2 mph E3.5 kmh E 2.2 mph3.5 kmh 29.84 in1010.5 mb 0.00 in0.0 mm 0.00 in0.0 mm 0.00 in0.0 mm
09:40 AM 48.9°F9.4°C 36.5°F2.5°C 62% 1.3 mph E2.1 kmh E 2.2 mph3.5 kmh 29.84 in1010.5 mb 0.00 in0.0 mm 0.00 in0.0 mm 0.00 in0.0 mm
09:38 AM 48.2°F9.0°C 35.8°F2.1°C 62% 0.2 mph SE0.3 kmh SE 1.1 mph1.8 kmh 29.84 in1010.5 mb 0.00 in0.0 mm 0.00 in0.0 mm 0.00 in0.0 mm
09:37 AM 48.2°F9.0°C 35.8°F2.1°C 62% Calm Calm -- 29.85 in1010.8 mb 0.00 in0.0 mm 0.00 in0.0 mm 0.00 in0.0 mm
09:36 AM 48.2°F9.0°C 35.4°F1.9°C 61% 0.7 mph ESE1.1 kmh ESE 1.1 mph1.8 kmh 29.84 in1010.5 mb 0.00 in0.0 mm 0.00 in0.0 mm 0.00 in0.0 mm
09:35 AM 48.4°F9.1°C 36.0°F2.2°C 62% 1.3 mph E2.1 kmh E 2.2 mph3.5 kmh 29.84 in1010.5 mb 0.00 in0.0 mm 0.00 in0.0 mm 0.00 in0.0 mm
09:34 AM 48.4°F9.1°C 34.3°F1.3°C 58% 0.2 mph SE0.3 kmh SE 1.1 mph1.8 kmh 29.84 in1010.5 mb 0.00 in0.0 mm 0.00 in0.0 mm 0.00 in0.0 mm
09:33 AM 48.4°F9.1°C 35.2°F1.8°C 60% 1.3 mph SE2.1 kmh SE 2.2 mph3.5 kmh 29.84 in1010.5 mb 0.00 in0.0 mm 0.00 in0.0 mm 0.00 in0.0 mm
09:32 AM 48.4°F9.1°C 34.3°F1.3°C 58% 2.7 mph E4.3 kmh E 3.4 mph5.5 kmh 29.85 in1010.8 mb 0.00 in0.0 mm 0.00 in0.0 mm 0.00 in0.0 mm
09:31 AM 48.0°F8.9°C 33.9°F1.1°C 58% 1.1 mph SE1.8 kmh SE 1.1 mph1.8 kmh 29.84 in1010.5 mb 0.00 in0.0 mm 0.00 in0.0 mm 0.00 in0.0 mm
09:30 AM 47.7°F8.7°C 33.7°F0.9°C 58% Calm Calm -- 29.84 in1010.5 mb 0.00 in0.0 mm 0.00 in0.0 mm 0.00 in0.0 mm
09:29 AM 47.7°F8.7°C 33.2°F0.7°C 57% 0.2 mph SE0.3 kmh SE 1.1 mph1.8 kmh 29.84 in1010.5 mb 0.00 in0.0 mm 0.00 in0.0 mm 0.00 in0.0 mm
09:28 AM 47.7°F8.7°C 33.2°F0.7°C 57% 0.4 mph ESE0.6 kmh ESE 1.1 mph1.8 kmh 29.85 in1010.8 mb 0.00 in0.0 mm 0.00 in0.0 mm 0.00 in0.0 mm
09:26 AM 48.2°F9.0°C 33.2°F0.7°C 56% 0.9 mph E1.4 kmh E 2.2 mph3.5 kmh 29.84 in1010.5 mb 0.00 in0.0 mm 0.00 in0.0 mm 0.00 in0.0 mm
09:25 AM 48.4°F9.1°C 34.3°F1.3°C 58% 1.8 mph ESE2.9 kmh ESE 2.2 mph3.5 kmh 29.84 in1010.5 mb 0.00 in0.0 mm 0.00 in0.0 mm 0.00 in0.0 mm
09:24 AM 48.6°F9.2°C 34.1°F1.2°C 57% 0.9 mph ESE1.4 kmh ESE 1.1 mph1.8 kmh 29.84 in1010.5 mb 0.00 in0.0 mm 0.00 in0.0 mm 0.00 in0.0 mm
09:23 AM 48.6°F9.2°C 33.6°F0.9°C 56% 0.9 mph ESE1.4 kmh ESE 2.2 mph3.5 kmh 29.85 in1010.8 mb 0.00 in0.0 mm 0.00 in0.0 mm 0.00 in0.0 mm
09:21 AM 48.7°F9.3°C 34.2°F1.2°C 57% 0.9 mph SE1.4 kmh SE 1.1 mph1.8 kmh 29.85 in1010.8 mb 0.00 in0.0 mm 0.00 in0.0 mm 0.00 in0.0 mm
09:20 AM 48.7°F9.3°C 33.7°F0.9°C 56% Calm Calm -- 29.85 in1010.8 mb 0.00 in0.0 mm 0.00 in0.0 mm 0.00 in0.0 mm
09:19 AM 48.7°F9.3°C 33.3°F0.7°C 55% 0.9 mph SE1.4 kmh SE 1.1 mph1.8 kmh 29.84 in1010.5 mb 0.00 in0.0 mm 0.00 in0.0 mm 0.00 in0.0 mm
09:18 AM 48.4°F9.1°C 33.4°F0.8°C 56% 0.7 mph SE1.1 kmh SE 1.1 mph1.8 kmh 29.85 in1010.8 mb 0.00 in0.0 mm 0.00 in0.0 mm 0.00 in0.0 mm
09:17 AM 47.8°F8.8°C 33.3°F0.7°C 57% 0.4 mph SE0.6 kmh SE 1.1 mph1.8 kmh 29.85 in1010.8 mb 0.00 in0.0 mm 0.00 in0.0 mm 0.00 in0.0 mm
09:16 AM 48.0°F8.9°C 33.9°F1.1°C 58% 0.2 mph SE0.3 kmh SE 1.1 mph1.8 kmh 29.85 in1010.8 mb 0.00 in0.0 mm 0.00 in0.0 mm 0.00 in0.0 mm
09:14 AM 48.0°F8.9°C 33.5°F0.8°C 57% 0.7 mph ESE1.1 kmh ESE 1.1 mph1.8 kmh 29.85 in1010.8 mb 0.00 in0.0 mm 0.00 in0.0 mm 0.00 in0.0 mm
09:12 AM 48.0°F8.9°C 33.5°F0.8°C 57% 0.2 mph ESE0.3 kmh ESE 1.1 mph1.8 kmh 29.85 in1010.8 mb 0.00 in0.0 mm 0.00 in0.0 mm 0.00 in0.0 mm
09:11 AM 48.0°F8.9°C 33.5°F0.8°C 57% Calm Calm -- 29.84 in1010.5 mb 0.00 in0.0 mm 0.00 in0.0 mm 0.00 in0.0 mm
09:10 AM 48.0°F8.9°C 33.1°F0.6°C 56% 0.7 mph ESE1.1 kmh ESE 1.1 mph1.8 kmh 29.84 in1010.5 mb 0.00 in0.0 mm 0.00 in0.0 mm 0.00 in0.0 mm
09:09 AM 48.0°F8.9°C 33.5°F0.8°C 57% Calm Calm -- 29.85 in1010.8 mb 0.00 in0.0 mm 0.00 in0.0 mm 0.00 in0.0 mm
09:07 AM 47.8°F8.8°C 33.3°F0.7°C 57% 0.9 mph SE1.4 kmh SE 1.1 mph1.8 kmh 29.85 in1010.8 mb 0.00 in0.0 mm 0.00 in0.0 mm 0.00 in0.0 mm
09:06 AM 47.5°F8.6°C 33.5°F0.8°C 58% Calm Calm -- 29.85 in1010.8 mb 0.00 in0.0 mm 0.00 in0.0 mm 0.00 in0.0 mm
09:05 AM 47.7°F8.7°C 34.1°F1.2°C 59% 1.1 mph SE1.8 kmh SE 1.1 mph1.8 kmh 29.85 in1010.8 mb 0.00 in0.0 mm 0.00 in0.0 mm 0.00 in0.0 mm
09:04 AM 47.8°F8.8°C 34.2°F1.2°C 59% 0.7 mph E1.1 kmh E 1.1 mph1.8 kmh 29.85 in1010.8 mb 0.00 in0.0 mm 0.00 in0.0 mm 0.00 in0.0 mm
09:03 AM 47.8°F8.8°C 33.3°F0.7°C 57% 0.7 mph ESE1.1 kmh ESE 1.1 mph1.8 kmh 29.84 in1010.5 mb 0.00 in0.0 mm 0.00 in0.0 mm 0.00 in0.0 mm
09:02 AM 47.8°F8.8°C 32.9°F0.5°C 56% 0.2 mph ESE0.3 kmh ESE 1.1 mph1.8 kmh 29.84 in1010.5 mb 0.00 in0.0 mm 0.00 in0.0 mm 0.00 in0.0 mm
09:00 AM 47.7°F8.7°C 33.7°F0.9°C 58% 0.2 mph ESE0.3 kmh ESE 1.1 mph1.8 kmh 29.85 in1010.8 mb 0.00 in0.0 mm 0.00 in0.0 mm 0.00 in0.0 mm
08:59 AM 47.7°F8.7°C 32.8°F0.4°C 56% 0.4 mph ESE0.6 kmh ESE 1.1 mph1.8 kmh 29.85 in1010.8 mb 0.00 in0.0 mm 0.00 in0.0 mm 0.00 in0.0 mm
08:58 AM 47.7°F8.7°C 33.7°F0.9°C 58% 0.2 mph ESE0.3 kmh ESE 1.1 mph1.8 kmh 29.85 in1010.8 mb 0.00 in0.0 mm 0.00 in0.0 mm 0.00 in0.0 mm
08:57 AM 47.7°F8.7°C 33.7°F0.9°C 58% 0.2 mph ESE0.3 kmh ESE 1.1 mph1.8 kmh 29.85 in1010.8 mb 0.00 in0.0 mm 0.00 in0.0 mm 0.00 in0.0 mm
08:56 AM 47.8°F8.8°C 33.7°F0.9°C 58% 0.7 mph ESE1.1 kmh ESE 1.1 mph1.8 kmh 29.85 in1010.8 mb 0.00 in0.0 mm 0.00 in0.0 mm 0.00 in0.0 mm
08:55 AM 47.8°F8.8°C 32.4°F0.2°C 55% 1.3 mph ESE2.1 kmh ESE 2.2 mph3.5 kmh 29.86 in1011.2 mb 0.00 in0.0 mm 0.00 in0.0 mm 0.00 in0.0 mm
08:54 AM 47.7°F8.7°C 33.2°F0.7°C 57% Calm Calm -- 29.86 in1011.2 mb 0.00 in0.0 mm 0.00 in0.0 mm 0.00 in0.0 mm
08:53 AM 47.5°F8.6°C 33.0°F0.6°C 57% Calm Calm -- 29.86 in1011.2 mb 0.00 in0.0 mm 0.00 in0.0 mm 0.00 in0.0 mm
08:52 AM 47.5°F8.6°C 33.0°F0.6°C 57% 0.7 mph SE1.1 kmh SE 1.1 mph1.8 kmh 29.86 in1011.2 mb 0.00 in0.0 mm 0.00 in0.0 mm 0.00 in0.0 mm
08:51 AM 47.5°F8.6°C 32.1°F0.1°C 55% 0.2 mph SE0.3 kmh SE 1.1 mph1.8 kmh 29.86 in1011.2 mb 0.00 in0.0 mm 0.00 in0.0 mm 0.00 in0.0 mm
08:50 AM 47.7°F8.7°C 32.8°F0.4°C 56% 0.9 mph SE1.4 kmh SE 1.1 mph1.8 kmh 29.86 in1011.2 mb 0.00 in0.0 mm 0.00 in0.0 mm 0.00 in0.0 mm
08:49 AM 47.8°F8.8°C 32.9°F0.5°C 56% 0.9 mph E1.4 kmh E 1.1 mph1.8 kmh 29.86 in1011.2 mb 0.00 in0.0 mm 0.00 in0.0 mm 0.00 in0.0 mm
08:48 AM 48.2°F9.0°C 32.8°F0.4°C 55% 0.7 mph NE1.1 kmh NE 1.1 mph1.8 kmh 29.86 in1011.2 mb 0.00 in0.0 mm 0.00 in0.0 mm 0.00 in0.0 mm
08:47 AM 48.4°F9.1°C 33.4°F0.8°C 56% 0.2 mph NNE0.3 kmh NNE 1.1 mph1.8 kmh 29.86 in1011.2 mb 0.00 in0.0 mm 0.00 in0.0 mm 0.00 in0.0 mm
08:46 AM 48.4°F9.1°C 33.0°F0.6°C 55% 0.2 mph N0.3 kmh N 1.1 mph1.8 kmh 29.86 in1011.2 mb 0.00 in0.0 mm 0.00 in0.0 mm 0.00 in0.0 mm
08:45 AM 48.4°F9.1°C 33.0°F0.6°C 55% 0.2 mph N0.3 kmh N 1.1 mph1.8 kmh 29.85 in1010.8 mb 0.00 in0.0 mm 0.00 in0.0 mm 0.00 in0.0 mm
08:44 AM 48.0°F8.9°C 32.6°F0.3°C 55% Calm Calm -- 29.86 in1011.2 mb 0.00 in0.0 mm 0.00 in0.0 mm 0.00 in0.0 mm
08:42 AM 47.3°F8.5°C 32.0°F0.0°C 55% 0.7 mph NNW1.1 kmh NNW 1.1 mph1.8 kmh 29.86 in1011.2 mb 0.00 in0.0 mm 0.00 in0.0 mm 0.00 in0.0 mm
08:41 AM 47.3°F8.5°C 32.8°F0.4°C 57% Calm Calm -- 29.86 in1011.2 mb 0.00 in0.0 mm 0.00 in0.0 mm 0.00 in0.0 mm
08:38 AM 47.5°F8.6°C 32.6°F0.3°C 56% Calm Calm -- 29.86 in1011.2 mb 0.00 in0.0 mm 0.00 in0.0 mm 0.00 in0.0 mm
08:36 AM 47.3°F8.5°C 32.8°F0.4°C 57% Calm Calm -- 29.85 in1010.8 mb 0.00 in0.0 mm 0.00 in0.0 mm 0.00 in0.0 mm
08:34 AM 47.1°F8.4°C 32.7°F0.4°C 57% Calm Calm -- 29.86 in1011.2 mb 0.00 in0.0 mm 0.00 in0.0 mm 0.00 in0.0 mm
08:33 AM 47.1°F8.4°C 32.7°F0.4°C 57% 0.2 mph NW0.3 kmh NW 1.1 mph1.8 kmh 29.85 in1010.8 mb 0.00 in0.0 mm 0.00 in0.0 mm 0.00 in0.0 mm
08:32 AM 47.3°F8.5°C 33.3°F0.7°C 58% 0.2 mph NW0.3 kmh NW 1.1 mph1.8 kmh 29.86 in1011.2 mb 0.00 in0.0 mm 0.00 in0.0 mm 0.00 in0.0 mm
08:31 AM 47.3°F8.5°C 32.8°F0.4°C 57% 0.2 mph NW0.3 kmh NW 1.1 mph1.8 kmh 29.86 in1011.2 mb 0.00 in0.0 mm 0.00 in0.0 mm 0.00 in0.0 mm
08:29 AM 47.3°F8.5°C 32.4°F0.2°C 56% Calm Calm -- 29.86 in1011.2 mb 0.00 in0.0 mm 0.00 in0.0 mm 0.00 in0.0 mm
08:28 AM 47.5°F8.6°C 32.6°F0.3°C 56% Calm Calm -- 29.86 in1011.2 mb 0.00 in0.0 mm 0.00 in0.0 mm 0.00 in0.0 mm
08:26 AM 47.5°F8.6°C 32.1°F0.1°C 55% Calm Calm -- 29.86 in1011.2 mb 0.00 in0.0 mm 0.00 in0.0 mm 0.00 in0.0 mm
08:24 AM 47.7°F8.7°C 31.9°F-0.1°C 54% Calm Calm -- 29.86 in1011.2 mb 0.00 in0.0 mm 0.00 in0.0 mm 0.00 in0.0 mm
08:23 AM 46.9°F8.3°C 31.6°F-0.2°C 55% Calm Calm -- 29.86 in1011.2 mb 0.00 in0.0 mm 0.00 in0.0 mm 0.00 in0.0 mm
08:21 AM 46.2°F7.9°C 30.9°F-0.6°C 55% Calm Calm -- 29.85 in1010.8 mb 0.00 in0.0 mm 0.00 in0.0 mm 0.00 in0.0 mm
08:19 AM 45.9°F7.7°C 31.5°F-0.3°C 57% Calm Calm -- 29.85 in1010.8 mb 0.00 in0.0 mm 0.00 in0.0 mm 0.00 in0.0 mm
08:18 AM 45.7°F7.6°C 31.3°F-0.4°C 57% Calm Calm -- 29.86 in1011.2 mb 0.00 in0.0 mm 0.00 in0.0 mm 0.00 in0.0 mm
08:17 AM 45.5°F7.5°C 32.0°F0.0°C 59% Calm Calm -- 29.85 in1010.8 mb 0.00 in0.0 mm 0.00 in0.0 mm 0.00 in0.0 mm
08:15 AM 45.5°F7.5°C 31.6°F-0.2°C 58% Calm Calm -- 29.85 in1010.8 mb 0.00 in0.0 mm 0.00 in0.0 mm 0.00 in0.0 mm
08:14 AM 45.3°F7.4°C 31.8°F-0.1°C 59% Calm Calm -- 29.85 in1010.8 mb 0.00 in0.0 mm 0.00 in0.0 mm 0.00 in0.0 mm
08:13 AM 45.1°F7.3°C 31.2°F-0.4°C 58% Calm Calm -- 29.85 in1010.8 mb 0.00 in0.0 mm 0.00 in0.0 mm 0.00 in0.0 mm
08:12 AM 45.1°F7.3°C 31.6°F-0.2°C 59% Calm Calm -- 29.85 in1010.8 mb 0.00 in0.0 mm 0.00 in0.0 mm 0.00 in0.0 mm
08:11 AM 44.8°F7.1°C 31.8°F-0.1°C 60% Calm Calm -- 29.85 in1010.8 mb 0.00 in0.0 mm 0.00 in0.0 mm 0.00 in0.0 mm
08:10 AM 44.8°F7.1°C 32.2°F0.1°C 61% Calm Calm -- 29.86 in1011.2 mb 0.00 in0.0 mm 0.00 in0.0 mm 0.00 in0.0 mm
08:09 AM 44.4°F6.9°C 31.8°F-0.1°C 61% Calm Calm -- 29.86 in1011.2 mb 0.00 in0.0 mm 0.00 in0.0 mm 0.00 in0.0 mm
08:07 AM 44.4°F6.9°C 31.4°F-0.3°C 60% Calm Calm -- 29.86 in1011.2 mb 0.00 in0.0 mm 0.00 in0.0 mm 0.00 in0.0 mm
08:06 AM 44.2°F6.8°C 31.6°F-0.2°C 61% 0.7 mph NW1.1 kmh NW 1.1 mph1.8 kmh 29.85 in1010.8 mb 0.00 in0.0 mm 0.00 in0.0 mm 0.00 in0.0 mm
08:05 AM 44.2°F6.8°C 32.0°F0.0°C 62% 0.7 mph NW1.1 kmh NW 1.1 mph1.8 kmh 29.86 in1011.2 mb 0.00 in0.0 mm 0.00 in0.0 mm 0.00 in0.0 mm
08:04 AM 44.2°F6.8°C 32.0°F0.0°C 62% 0.9 mph NW1.4 kmh NW 1.1 mph1.8 kmh 29.86 in1011.2 mb 0.00 in0.0 mm 0.00 in0.0 mm 0.00 in0.0 mm
08:03 AM 44.1°F6.7°C 32.3°F0.2°C 63% 0.2 mph NW0.3 kmh NW 1.1 mph1.8 kmh 29.86 in1011.2 mb 0.00 in0.0 mm 0.00 in0.0 mm 0.00 in0.0 mm
08:02 AM 43.9°F6.6°C 31.7°F-0.2°C 62% 0.7 mph NW1.1 kmh NW 1.1 mph1.8 kmh 29.86 in1011.2 mb 0.00 in0.0 mm 0.00 in0.0 mm 0.00 in0.0 mm
08:00 AM 43.5°F6.4°C 31.8°F-0.1°C 63% 0.7 mph NW1.1 kmh NW 1.1 mph1.8 kmh 29.86 in1011.2 mb 0.00 in0.0 mm 0.00 in0.0 mm 0.00 in0.0 mm
07:59 AM 43.3°F6.3°C 31.6°F-0.2°C 63% 1.1 mph NW1.8 kmh NW 1.1 mph1.8 kmh 29.86 in1011.2 mb 0.00 in0.0 mm 0.00 in0.0 mm 0.00 in0.0 mm
07:58 AM 43.0°F6.1°C 31.3°F-0.4°C 63% 1.1 mph NW1.8 kmh NW 1.1 mph1.8 kmh 29.86 in1011.2 mb 0.00 in0.0 mm 0.00 in0.0 mm 0.00 in0.0 mm
07:57 AM 42.8°F6.0°C 32.2°F0.1°C 66% Calm Calm -- 29.86 in1011.2 mb 0.00 in0.0 mm 0.00 in0.0 mm 0.00 in0.0 mm
07:56 AM 42.6°F5.9°C 32.4°F0.2°C 67% Calm Calm -- 29.85 in1010.8 mb 0.00 in0.0 mm 0.00 in0.0 mm 0.00 in0.0 mm
07:55 AM 42.3°F5.7°C 32.5°F0.3°C 68% 0.9 mph NW1.4 kmh NW 1.1 mph1.8 kmh 29.86 in1011.2 mb 0.00 in0.0 mm 0.00 in0.0 mm 0.00 in0.0 mm
07:54 AM 42.1°F5.6°C 33.0°F0.6°C 70% 0.7 mph NW1.1 kmh NW 1.1 mph1.8 kmh 29.86 in1011.2 mb 0.00 in0.0 mm 0.00 in0.0 mm 0.00 in0.0 mm
07:52 AM 41.9°F5.5°C 32.8°F0.4°C 70% 0.9 mph NW1.4 kmh NW 1.1 mph1.8 kmh 29.86 in1011.2 mb 0.00 in0.0 mm 0.00 in0.0 mm 0.00 in0.0 mm
07:51 AM 41.9°F5.5°C 32.8°F0.4°C 70% 0.9 mph NW1.4 kmh NW 1.1 mph1.8 kmh 29.86 in1011.2 mb 0.00 in0.0 mm 0.00 in0.0 mm 0.00 in0.0 mm
07:50 AM 41.7°F5.4°C 32.6°F0.3°C 70% 1.1 mph NW1.8 kmh NW 1.1 mph1.8 kmh 29.86 in1011.2 mb 0.00 in0.0 mm 0.00 in0.0 mm 0.00 in0.0 mm
07:49 AM 41.5°F5.3°C 32.5°F0.3°C 70% 0.9 mph NW1.4 kmh NW 1.1 mph1.8 kmh 29.86 in1011.2 mb 0.00 in0.0 mm 0.00 in0.0 mm 0.00 in0.0 mm
07:48 AM 41.7°F5.4°C 33.0°F0.6°C 71% 1.1 mph NW1.8 kmh NW 1.1 mph1.8 kmh 29.86 in1011.2 mb 0.00 in0.0 mm 0.00 in0.0 mm 0.00 in0.0 mm
07:47 AM 41.5°F5.3°C 32.8°F0.4°C 71% 1.1 mph NW1.8 kmh NW 1.1 mph1.8 kmh 29.86 in1011.2 mb 0.00 in0.0 mm 0.00 in0.0 mm 0.00 in0.0 mm
07:45 AM 41.7°F5.4°C 33.0°F0.6°C 71% 0.7 mph NW1.1 kmh NW 1.1 mph1.8 kmh 29.86 in1011.2 mb 0.00 in0.0 mm 0.00 in0.0 mm 0.00 in0.0 mm
07:44 AM 41.7°F5.4°C 32.6°F0.3°C 70% 0.4 mph NW0.6 kmh NW 1.1 mph1.8 kmh 29.86 in1011.2 mb 0.00 in0.0 mm 0.00 in0.0 mm 0.00 in0.0 mm
07:43 AM 41.7°F5.4°C 32.6°F0.3°C 70% 1.1 mph NW1.8 kmh NW 1.1 mph1.8 kmh 29.85 in1010.8 mb 0.00 in0.0 mm 0.00 in0.0 mm 0.00 in0.0 mm
07:42 AM 41.7°F5.4°C 32.6°F0.3°C 70% 1.1 mph NW1.8 kmh NW 1.1 mph1.8 kmh 29.86 in1011.2 mb 0.00 in0.0 mm 0.00 in0.0 mm 0.00 in0.0 mm
07:41 AM 41.7°F5.4°C 31.9°F-0.1°C 68% 1.3 mph NW2.1 kmh NW 2.2 mph3.5 kmh 29.86 in1011.2 mb 0.00 in0.0 mm 0.00 in0.0 mm 0.00 in0.0 mm
07:39 AM 41.9°F5.5°C 31.8°F-0.1°C 67% 1.1 mph WNW1.8 kmh WNW 1.1 mph1.8 kmh 29.86 in1011.2 mb 0.00 in0.0 mm 0.00 in0.0 mm 0.00 in0.0 mm
07:38 AM 41.7°F5.4°C 31.6°F-0.2°C 67% 1.3 mph WNW2.1 kmh WNW 2.2 mph3.5 kmh 29.85 in1010.8 mb 0.00 in0.0 mm 0.00 in0.0 mm 0.00 in0.0 mm
07:37 AM 41.7°F5.4°C 31.2°F-0.4°C 66% 1.1 mph NW1.8 kmh NW 1.1 mph1.8 kmh 29.85 in1010.8 mb 0.00 in0.0 mm 0.00 in0.0 mm 0.00 in0.0 mm
07:35 AM 41.7°F5.4°C 31.2°F-0.4°C 66% 1.1 mph NW1.8 kmh NW 1.1 mph1.8 kmh 29.85 in1010.8 mb 0.00 in0.0 mm 0.00 in0.0 mm 0.00 in0.0 mm
07:34 AM 41.7°F5.4°C 31.6°F-0.2°C 67% 1.1 mph NW1.8 kmh NW 1.1 mph1.8 kmh 29.86 in1011.2 mb 0.00 in0.0 mm 0.00 in0.0 mm 0.00 in0.0 mm
07:33 AM 41.5°F5.3°C 31.0°F-0.6°C 66% 1.1 mph NW1.8 kmh NW 1.1 mph1.8 kmh 29.85 in1010.8 mb 0.00 in0.0 mm 0.00 in0.0 mm 0.00 in0.0 mm
07:32 AM 41.4°F5.2°C 31.3°F-0.4°C 67% 1.3 mph NW2.1 kmh NW 2.2 mph3.5 kmh 29.86 in1011.2 mb 0.00 in0.0 mm 0.00 in0.0 mm 0.00 in0.0 mm
07:31 AM 41.2°F5.1°C 31.5°F-0.3°C 68% 1.3 mph WNW2.1 kmh WNW 2.2 mph3.5 kmh 29.85 in1010.8 mb 0.00 in0.0 mm 0.00 in0.0 mm 0.00 in0.0 mm
07:29 AM 41.0°F5.0°C 31.3°F-0.4°C 68% 1.8 mph WNW2.9 kmh WNW 2.2 mph3.5 kmh 29.86 in1011.2 mb 0.00 in0.0 mm 0.00 in0.0 mm 0.00 in0.0 mm
07:28 AM 41.0°F5.0°C 31.3°F-0.4°C 68% 2.0 mph NW3.2 kmh NW 2.2 mph3.5 kmh 29.86 in1011.2 mb 0.00 in0.0 mm 0.00 in0.0 mm 0.00 in0.0 mm
07:27 AM 40.8°F4.9°C 31.4°F-0.3°C 69% 1.6 mph WNW2.6 kmh WNW 2.2 mph3.5 kmh 29.85 in1010.8 mb 0.00 in0.0 mm 0.00 in0.0 mm 0.00 in0.0 mm
07:26 AM 40.6°F4.8°C 31.2°F-0.4°C 69% 2.0 mph WNW3.2 kmh WNW 2.2 mph3.5 kmh 29.86 in1011.2 mb 0.00 in0.0 mm 0.00 in0.0 mm 0.00 in0.0 mm
07:25 AM 40.6°F4.8°C 31.6°F-0.2°C 70% 1.3 mph NW2.1 kmh NW 2.2 mph3.5 kmh 29.85 in1010.8 mb 0.00 in0.0 mm 0.00 in0.0 mm 0.00 in0.0 mm
07:24 AM 40.6°F4.8°C 31.6°F-0.2°C 70% 1.8 mph NW2.9 kmh NW 2.2 mph3.5 kmh 29.86 in1011.2 mb 0.00 in0.0 mm 0.00 in0.0 mm 0.00 in0.0 mm
07:23 AM 40.6°F4.8°C 31.9°F-0.1°C 71% 1.3 mph NW2.1 kmh NW 2.2 mph3.5 kmh 29.86 in1011.2 mb 0.00 in0.0 mm 0.00 in0.0 mm 0.00 in0.0 mm
07:22 AM 40.8°F4.9°C 32.1°F0.1°C 71% 1.1 mph NW1.8 kmh NW 1.1 mph1.8 kmh 29.85 in1010.8 mb 0.00 in0.0 mm 0.00 in0.0 mm 0.00 in0.0 mm
07:21 AM 40.8°F4.9°C 32.1°F0.1°C 71% 1.8 mph NW2.9 kmh NW 2.2 mph3.5 kmh 29.85 in1010.8 mb 0.00 in0.0 mm 0.00 in0.0 mm 0.00 in0.0 mm
07:19 AM 40.8°F4.9°C 32.1°F0.1°C 71% 2.0 mph NW3.2 kmh NW 2.2 mph3.5 kmh 29.86 in1011.2 mb 0.00 in0.0 mm 0.00 in0.0 mm 0.00 in0.0 mm
07:18 AM 40.8°F4.9°C 32.1°F0.1°C 71% 1.6 mph NW2.6 kmh NW 2.2 mph3.5 kmh 29.85 in1010.8 mb 0.00 in0.0 mm 0.00 in0.0 mm 0.00 in0.0 mm
07:17 AM 40.8°F4.9°C 32.1°F0.1°C 71% 1.8 mph NW2.9 kmh NW 2.2 mph3.5 kmh 29.85 in1010.8 mb 0.00 in0.0 mm 0.00 in0.0 mm 0.00 in0.0 mm
07:15 AM 41.0°F5.0°C 32.7°F0.4°C 72% 1.3 mph NW2.1 kmh NW 2.2 mph3.5 kmh 29.86 in1011.2 mb 0.00 in0.0 mm 0.00 in0.0 mm 0.00 in0.0 mm
07:14 AM 41.2°F5.1°C 32.9°F0.5°C 72% 1.3 mph NW2.1 kmh NW 2.2 mph3.5 kmh 29.85 in1010.8 mb 0.00 in0.0 mm 0.00 in0.0 mm 0.00 in0.0 mm
07:13 AM 41.2°F5.1°C 32.5°F0.3°C 71% 2.0 mph NW3.2 kmh NW 2.2 mph3.5 kmh 29.86 in1011.2 mb 0.00 in0.0 mm 0.00 in0.0 mm 0.00 in0.0 mm
07:12 AM 41.0°F5.0°C 32.7°F0.4°C 72% 2.2 mph NW3.5 kmh NW 2.2 mph3.5 kmh 29.86 in1011.2 mb 0.00 in0.0 mm 0.00 in0.0 mm 0.00 in0.0 mm
07:10 AM 41.2°F5.1°C 32.9°F0.5°C 72% 1.8 mph NW2.9 kmh NW 2.2 mph3.5 kmh 29.85 in1010.8 mb 0.00 in0.0 mm 0.00 in0.0 mm 0.00 in0.0 mm
07:09 AM 41.4°F5.2°C 33.1°F0.6°C 72% 1.6 mph NW2.6 kmh NW 2.2 mph3.5 kmh 29.85 in1010.8 mb 0.00 in0.0 mm 0.00 in0.0 mm 0.00 in0.0 mm
07:08 AM 41.4°F5.2°C 32.7°F0.4°C 71% 2.0 mph NW3.2 kmh NW 2.2 mph3.5 kmh 29.85 in1010.8 mb 0.00 in0.0 mm 0.00 in0.0 mm 0.00 in0.0 mm
07:07 AM 41.5°F5.3°C 32.8°F0.4°C 71% 1.3 mph NW2.1 kmh NW 2.2 mph3.5 kmh 29.85 in1010.8 mb 0.00 in0.0 mm 0.00 in0.0 mm 0.00 in0.0 mm
07:06 AM 41.5°F5.3°C 32.5°F0.3°C 70% 1.8 mph NW2.9 kmh NW 2.2 mph3.5 kmh 29.86 in1011.2 mb 0.00 in0.0 mm 0.00 in0.0 mm 0.00 in0.0 mm
07:05 AM 41.5°F5.3°C 32.5°F0.3°C 70% 1.3 mph NW2.1 kmh NW 2.2 mph3.5 kmh 29.86 in1011.2 mb 0.00 in0.0 mm 0.00 in0.0 mm 0.00 in0.0 mm
07:04 AM 41.5°F5.3°C 32.5°F0.3°C 70% 1.3 mph NW2.1 kmh NW 2.2 mph3.5 kmh 29.85 in1010.8 mb 0.00 in0.0 mm 0.00 in0.0 mm 0.00 in0.0 mm
07:03 AM 41.2°F5.1°C 32.2°F0.1°C 70% 1.6 mph NW2.6 kmh NW 2.2 mph3.5 kmh 29.85 in1010.8 mb 0.00 in0.0 mm 0.00 in0.0 mm 0.00 in0.0 mm
07:02 AM 41.2°F5.1°C 32.2°F0.1°C 70% 1.8 mph NW2.9 kmh NW 2.2 mph3.5 kmh 29.86 in1011.2 mb 0.00 in0.0 mm 0.00 in0.0 mm 0.00 in0.0 mm
07:01 AM 41.2°F5.1°C 32.5°F0.3°C 71% 1.1 mph NW1.8 kmh NW 1.1 mph1.8 kmh 29.85 in1010.8 mb 0.00 in0.0 mm 0.00 in0.0 mm 0.00 in0.0 mm
07:00 AM 41.2°F5.1°C 32.5°F0.3°C 71% 1.3 mph NW2.1 kmh NW 2.2 mph3.5 kmh 29.85 in1010.8 mb 0.00 in0.0 mm 0.00 in0.0 mm 0.00 in0.0 mm
06:59 AM 41.2°F5.1°C 32.9°F0.5°C 72% 1.3 mph NW2.1 kmh NW 2.2 mph3.5 kmh 29.86 in1011.2 mb 0.00 in0.0 mm 0.00 in0.0 mm 0.00 in0.0 mm
06:58 AM 41.0°F5.0°C 32.3°F0.2°C 71% 1.8 mph NW2.9 kmh NW 2.2 mph3.5 kmh 29.85 in1010.8 mb 0.00 in0.0 mm 0.00 in0.0 mm 0.00 in0.0 mm
06:56 AM 41.0°F5.0°C 32.7°F0.4°C 72% 1.6 mph NW2.6 kmh NW 2.2 mph3.5 kmh 29.86 in1011.2 mb 0.00 in0.0 mm 0.00 in0.0 mm 0.00 in0.0 mm
06:55 AM 41.0°F5.0°C 32.7°F0.4°C 72% 1.3 mph NW2.1 kmh NW 2.2 mph3.5 kmh 29.85 in1010.8 mb 0.00 in0.0 mm 0.00 in0.0 mm 0.00 in0.0 mm
06:53 AM 41.0°F5.0°C 32.7°F0.4°C 72% 1.8 mph NW2.9 kmh NW 2.2 mph3.5 kmh 29.86 in1011.2 mb 0.00 in0.0 mm 0.00 in0.0 mm 0.00 in0.0 mm
06:51 AM 41.0°F5.0°C 32.7°F0.4°C 72% 1.3 mph NW2.1 kmh NW 2.2 mph3.5 kmh 29.85 in1010.8 mb 0.00 in0.0 mm 0.00 in0.0 mm 0.00 in0.0 mm
06:50 AM 41.0°F5.0°C 32.7°F0.4°C 72% 1.6 mph NW2.6 kmh NW 2.2 mph3.5 kmh 29.85 in1010.8 mb 0.00 in0.0 mm 0.00 in0.0 mm 0.00 in0.0 mm
06:49 AM 41.0°F5.0°C 32.7°F0.4°C 72% 1.1 mph NW1.8 kmh NW 1.1 mph1.8 kmh 29.86 in1011.2 mb 0.00 in0.0 mm 0.00 in0.0 mm 0.00 in0.0 mm
06:48 AM 41.0°F5.0°C 32.7°F0.4°C 72% 1.8 mph NW2.9 kmh NW 2.2 mph3.5 kmh 29.85 in1010.8 mb 0.00 in0.0 mm 0.00 in0.0 mm 0.00 in0.0 mm
06:47 AM 41.2°F5.1°C 32.9°F0.5°C 72% 1.3 mph NW2.1 kmh NW 2.2 mph3.5 kmh 29.86 in1011.2 mb 0.00 in0.0 mm 0.00 in0.0 mm 0.00 in0.0 mm
06:46 AM 41.2°F5.1°C 32.9°F0.5°C 72% 1.3 mph NW2.1 kmh NW 2.2 mph3.5 kmh 29.86 in1011.2 mb 0.00 in0.0 mm 0.00 in0.0 mm 0.00 in0.0 mm
06:44 AM 41.4°F5.2°C 33.1°F0.6°C 72% 1.1 mph NW1.8 kmh NW 1.1 mph1.8 kmh 29.86 in1011.2 mb 0.00 in0.0 mm 0.00 in0.0 mm 0.00 in0.0 mm
06:43 AM 41.4°F5.2°C 32.7°F0.4°C 71% 1.6 mph NW2.6 kmh NW 2.2 mph3.5 kmh 29.86 in1011.2 mb 0.00 in0.0 mm 0.00 in0.0 mm 0.00 in0.0 mm
06:41 AM 41.4°F5.2°C 32.7°F0.4°C 71% 1.3 mph NW2.1 kmh NW 2.2 mph3.5 kmh 29.86 in1011.2 mb 0.00 in0.0 mm 0.00 in0.0 mm 0.00 in0.0 mm
06:39 AM 41.4°F5.2°C 32.7°F0.4°C 71% 1.3 mph NW2.1 kmh NW 2.2 mph3.5 kmh 29.86 in1011.2 mb 0.00 in0.0 mm 0.00 in0.0 mm 0.00 in0.0 mm
06:37 AM 41.4°F5.2°C 32.4°F0.2°C 70% 1.1 mph NW1.8 kmh NW 1.1 mph1.8 kmh 29.86 in1011.2 mb 0.00 in0.0 mm 0.00 in0.0 mm 0.00 in0.0 mm
06:36 AM 41.5°F5.3°C 32.8°F0.4°C 71% 1.8 mph NW2.9 kmh NW 2.2 mph3.5 kmh 29.85 in1010.8 mb 0.00 in0.0 mm 0.00 in0.0 mm 0.00 in0.0 mm
06:35 AM 41.5°F5.3°C 32.8°F0.4°C 71% 1.8 mph NW2.9 kmh NW 2.2 mph3.5 kmh 29.86 in1011.2 mb 0.00 in0.0 mm 0.00 in0.0 mm 0.00 in0.0 mm
06:34 AM 41.5°F5.3°C 32.8°F0.4°C 71% 1.8 mph NW2.9 kmh NW 2.2 mph3.5 kmh 29.86 in1011.2 mb 0.00 in0.0 mm 0.00 in0.0 mm 0.00 in0.0 mm
06:33 AM 41.5°F5.3°C 32.8°F0.4°C 71% 1.3 mph NW2.1 kmh NW 2.2 mph3.5 kmh 29.86 in1011.2 mb 0.00 in0.0 mm 0.00 in0.0 mm 0.00 in0.0 mm
06:32 AM 41.5°F5.3°C 32.8°F0.4°C 71% 1.3 mph NW2.1 kmh NW 2.2 mph3.5 kmh 29.86 in1011.2 mb 0.00 in0.0 mm 0.00 in0.0 mm 0.00 in0.0 mm
06:30 AM 41.7°F5.4°C 33.0°F0.6°C 71% 0.9 mph NW1.4 kmh NW 1.1 mph1.8 kmh 29.85 in1010.8 mb 0.00 in0.0 mm 0.00 in0.0 mm 0.00 in0.0 mm
06:29 AM 41.9°F5.5°C 32.8°F0.4°C 70% 1.1 mph NW1.8 kmh NW 1.1 mph1.8 kmh 29.86 in1011.2 mb 0.00 in0.0 mm 0.00 in0.0 mm 0.00 in0.0 mm
06:28 AM 41.7°F5.4°C 32.6°F0.3°C 70% 0.9 mph NW1.4 kmh NW 1.1 mph1.8 kmh 29.86 in1011.2 mb 0.00 in0.0 mm 0.00 in0.0 mm 0.00 in0.0 mm
06:26 AM 41.7°F5.4°C 32.6°F0.3°C 70% 0.9 mph NW1.4 kmh NW 1.1 mph1.8 kmh 29.86 in1011.2 mb 0.00 in0.0 mm 0.00 in0.0 mm 0.00 in0.0 mm
06:25 AM 41.5°F5.3°C 32.5°F0.3°C 70% 1.3 mph NW2.1 kmh NW 2.2 mph3.5 kmh 29.86 in1011.2 mb 0.00 in0.0 mm 0.00 in0.0 mm 0.00 in0.0 mm
06:24 AM 41.2°F5.1°C 32.2°F0.1°C 70% 1.1 mph NW1.8 kmh NW 1.1 mph1.8 kmh 29.86 in1011.2 mb 0.00 in0.0 mm 0.00 in0.0 mm 0.00 in0.0 mm
06:23 AM 41.2°F5.1°C 32.5°F0.3°C 71% 1.1 mph NW1.8 kmh NW 1.1 mph1.8 kmh 29.86 in1011.2 mb 0.00 in0.0 mm 0.00 in0.0 mm 0.00 in0.0 mm
06:22 AM 41.0°F5.0°C 32.7°F0.4°C 72% 1.3 mph NW2.1 kmh NW 2.2 mph3.5 kmh 29.86 in1011.2 mb 0.00 in0.0 mm 0.00 in0.0 mm 0.00 in0.0 mm
06:21 AM 41.0°F5.0°C 32.7°F0.4°C 72% 1.3 mph NW2.1 kmh NW 2.2 mph3.5 kmh 29.86 in1011.2 mb 0.00 in0.0 mm 0.00 in0.0 mm 0.00 in0.0 mm
06:20 AM 41.0°F5.0°C 32.7°F0.4°C 72% 1.8 mph NW2.9 kmh NW 2.2 mph3.5 kmh 29.86 in1011.2 mb 0.00 in0.0 mm 0.00 in0.0 mm 0.00 in0.0 mm
06:19 AM 41.0°F5.0°C 32.7°F0.4°C 72% 1.8 mph NW2.9 kmh NW 2.2 mph3.5 kmh 29.86 in1011.2 mb 0.00 in0.0 mm 0.00 in0.0 mm 0.00 in0.0 mm
06:18 AM 41.0°F5.0°C 32.7°F0.4°C 72% 1.6 mph NW2.6 kmh NW 2.2 mph3.5 kmh 29.86 in1011.2 mb 0.00 in0.0 mm 0.00 in0.0 mm 0.00 in0.0 mm
06:17 AM 41.2°F5.1°C 32.9°F0.5°C 72% 1.8 mph NW2.9 kmh NW 2.2 mph3.5 kmh 29.85 in1010.8 mb 0.00 in0.0 mm 0.00 in0.0 mm 0.00 in0.0 mm
06:16 AM 41.5°F5.3°C 33.2°F0.7°C 72% 1.8 mph NW2.9 kmh NW 2.2 mph3.5 kmh 29.86 in1011.2 mb 0.00 in0.0 mm 0.00 in0.0 mm 0.00 in0.0 mm
06:14 AM 41.5°F5.3°C 32.8°F0.4°C 71% 1.1 mph NW1.8 kmh NW 1.1 mph1.8 kmh 29.86 in1011.2 mb 0.00 in0.0 mm 0.00 in0.0 mm 0.00 in0.0 mm
06:13 AM 41.4°F5.2°C 32.7°F0.4°C 71% 1.3 mph NW2.1 kmh NW 2.2 mph3.5 kmh 29.86 in1011.2 mb 0.00 in0.0 mm 0.00 in0.0 mm 0.00 in0.0 mm
06:12 AM 41.4°F5.2°C 32.7°F0.4°C 71% 1.6 mph NW2.6 kmh NW 2.2 mph3.5 kmh 29.86 in1011.2 mb 0.00 in0.0 mm 0.00 in0.0 mm 0.00 in0.0 mm
06:11 AM 41.4°F5.2°C 33.1°F0.6°C 72% 1.6 mph NW2.6 kmh NW 2.2 mph3.5 kmh 29.86 in1011.2 mb 0.00 in0.0 mm 0.00 in0.0 mm 0.00 in0.0 mm
06:10 AM 41.5°F5.3°C 32.8°F0.4°C 71% 1.8 mph NW2.9 kmh NW 2.2 mph3.5 kmh 29.86 in1011.2 mb 0.00 in0.0 mm 0.00 in0.0 mm 0.00 in0.0 mm
06:09 AM 41.5°F5.3°C 32.8°F0.4°C 71% 1.1 mph WNW1.8 kmh WNW 1.1 mph1.8 kmh 29.86 in1011.2 mb 0.00 in0.0 mm 0.00 in0.0 mm 0.00 in0.0 mm
06:08 AM 41.5°F5.3°C 32.8°F0.4°C 71% 0.9 mph WNW1.4 kmh WNW 1.1 mph1.8 kmh 29.86 in1011.2 mb 0.00 in0.0 mm 0.00 in0.0 mm 0.00 in0.0 mm
06:07 AM 41.7°F5.4°C 33.0°F0.6°C 71% 1.8 mph NW2.9 kmh NW 2.2 mph3.5 kmh 29.86 in1011.2 mb 0.00 in0.0 mm 0.00 in0.0 mm 0.00 in0.0 mm
06:04 AM 42.1°F5.6°C 33.0°F0.6°C 70% 1.1 mph NW1.8 kmh NW 1.1 mph1.8 kmh 29.86 in1011.2 mb 0.00 in0.0 mm 0.00 in0.0 mm 0.00 in0.0 mm
06:03 AM 42.3°F5.7°C 33.2°F0.7°C 70% 0.7 mph NNW1.1 kmh NNW 1.1 mph1.8 kmh 29.86 in1011.2 mb 0.00 in0.0 mm 0.00 in0.0 mm 0.00 in0.0 mm
06:02 AM 42.4°F5.8°C 33.0°F0.6°C 69% 1.1 mph NNW1.8 kmh NNW 1.1 mph1.8 kmh 29.87 in1011.5 mb 0.00 in0.0 mm 0.00 in0.0 mm 0.00 in0.0 mm
06:01 AM 42.6°F5.9°C 33.5°F0.8°C 70% 1.1 mph NNW1.8 kmh NNW 1.1 mph1.8 kmh 29.86 in1011.2 mb 0.00 in0.0 mm 0.00 in0.0 mm 0.00 in0.0 mm
06:00 AM 42.3°F5.7°C 32.5°F0.3°C 68% 0.9 mph N1.4 kmh N 1.1 mph1.8 kmh 29.87 in1011.5 mb 0.00 in0.0 mm 0.00 in0.0 mm 0.00 in0.0 mm
05:58 AM 41.9°F5.5°C 32.5°F0.3°C 69% 1.1 mph N1.8 kmh N 1.1 mph1.8 kmh 29.87 in1011.5 mb 0.00 in0.0 mm 0.00 in0.0 mm 0.00 in0.0 mm
05:57 AM 41.9°F5.5°C 32.8°F0.4°C 70% 0.9 mph N1.4 kmh N 1.1 mph1.8 kmh 29.86 in1011.2 mb 0.00 in0.0 mm 0.00 in0.0 mm 0.00 in0.0 mm
05:56 AM 41.7°F5.4°C 32.6°F0.3°C 70% 0.7 mph NNW1.1 kmh NNW 1.1 mph1.8 kmh 29.87 in1011.5 mb 0.00 in0.0 mm 0.00 in0.0 mm 0.00 in0.0 mm
05:55 AM 41.7°F5.4°C 33.0°F0.6°C 71% 0.7 mph NNW1.1 kmh NNW 1.1 mph1.8 kmh 29.87 in1011.5 mb 0.00 in0.0 mm 0.00 in0.0 mm 0.00 in0.0 mm
05:54 AM 41.5°F5.3°C 32.8°F0.4°C 71% Calm Calm -- 29.86 in1011.2 mb 0.00 in0.0 mm 0.00 in0.0 mm 0.00 in0.0 mm
05:53 AM 41.5°F5.3°C 33.2°F0.7°C 72% 0.4 mph NNW0.6 kmh NNW 1.1 mph1.8 kmh 29.86 in1011.2 mb 0.00 in0.0 mm 0.00 in0.0 mm 0.00 in0.0 mm
05:52 AM 41.5°F5.3°C 33.2°F0.7°C 72% Calm Calm -- 29.86 in1011.2 mb 0.00 in0.0 mm 0.00 in0.0 mm 0.00 in0.0 mm
05:51 AM 41.7°F5.4°C 33.4°F0.8°C 72% Calm Calm -- 29.86 in1011.2 mb 0.00 in0.0 mm 0.00 in0.0 mm 0.00 in0.0 mm
05:50 AM 41.7°F5.4°C 33.4°F0.8°C 72% 0.2 mph NNW0.3 kmh NNW 1.1 mph1.8 kmh 29.87 in1011.5 mb 0.00 in0.0 mm 0.00 in0.0 mm 0.00 in0.0 mm
05:49 AM 41.9°F5.5°C 33.5°F0.8°C 72% Calm Calm -- 29.87 in1011.5 mb 0.00 in0.0 mm 0.00 in0.0 mm 0.00 in0.0 mm
05:47 AM 42.1°F5.6°C 33.7°F0.9°C 72% 0.4 mph NNW0.6 kmh NNW 1.1 mph1.8 kmh 29.87 in1011.5 mb 0.00 in0.0 mm 0.00 in0.0 mm 0.00 in0.0 mm
05:45 AM 42.1°F5.6°C 33.7°F0.9°C 72% 0.9 mph N1.4 kmh N 1.1 mph1.8 kmh 29.87 in1011.5 mb 0.00 in0.0 mm 0.00 in0.0 mm 0.00 in0.0 mm
05:43 AM 41.9°F5.5°C 33.5°F0.8°C 72% 1.8 mph N2.9 kmh N 2.2 mph3.5 kmh 29.87 in1011.5 mb 0.00 in0.0 mm 0.00 in0.0 mm 0.00 in0.0 mm
05:41 AM 42.1°F5.6°C 33.7°F0.9°C 72% 1.1 mph NW1.8 kmh NW 1.1 mph1.8 kmh 29.87 in1011.5 mb 0.00 in0.0 mm 0.00 in0.0 mm 0.00 in0.0 mm
05:39 AM 42.1°F5.6°C 33.7°F0.9°C 72% 1.3 mph NNW2.1 kmh NNW 2.2 mph3.5 kmh 29.87 in1011.5 mb 0.00 in0.0 mm 0.00 in0.0 mm 0.00 in0.0 mm
05:38 AM 42.1°F5.6°C 33.7°F0.9°C 72% 0.9 mph NW1.4 kmh NW 1.1 mph1.8 kmh 29.87 in1011.5 mb 0.00 in0.0 mm 0.00 in0.0 mm 0.00 in0.0 mm
05:37 AM 42.1°F5.6°C 33.7°F0.9°C 72% 1.1 mph NW1.8 kmh NW 1.1 mph1.8 kmh 29.87 in1011.5 mb 0.00 in0.0 mm 0.00 in0.0 mm 0.00 in0.0 mm
05:36 AM 42.1°F5.6°C 33.7°F0.9°C 72% 2.2 mph N3.5 kmh N 2.2 mph3.5 kmh 29.87 in1011.5 mb 0.00 in0.0 mm 0.00 in0.0 mm 0.00 in0.0 mm
05:35 AM 42.1°F5.6°C 33.7°F0.9°C 72% 1.8 mph NW2.9 kmh NW 2.2 mph3.5 kmh 29.87 in1011.5 mb 0.00 in0.0 mm 0.00 in0.0 mm 0.00 in0.0 mm
05:34 AM 42.1°F5.6°C 33.7°F0.9°C 72% 1.3 mph NW2.1 kmh NW 2.2 mph3.5 kmh 29.87 in1011.5 mb 0.00 in0.0 mm 0.00 in0.0 mm 0.00 in0.0 mm
05:33 AM 41.9°F5.5°C 33.9°F1.1°C 73% Calm Calm -- 29.88 in1011.9 mb 0.00 in0.0 mm 0.00 in0.0 mm 0.00 in0.0 mm
05:31 AM 41.9°F5.5°C 33.9°F1.1°C 73% 1.8 mph NW2.9 kmh NW 2.2 mph3.5 kmh 29.88 in1011.9 mb 0.00 in0.0 mm 0.00 in0.0 mm 0.00 in0.0 mm
05:30 AM 41.5°F5.3°C 33.5°F0.8°C 73% 1.8 mph NW2.9 kmh NW 2.2 mph3.5 kmh 29.87 in1011.5 mb 0.00 in0.0 mm 0.00 in0.0 mm 0.00 in0.0 mm
05:29 AM 41.5°F5.3°C 33.5°F0.8°C 73% 1.8 mph NW2.9 kmh NW 2.2 mph3.5 kmh 29.87 in1011.5 mb 0.00 in0.0 mm 0.00 in0.0 mm 0.00 in0.0 mm
05:28 AM 41.5°F5.3°C 33.8°F1.0°C 74% 0.2 mph NW0.3 kmh NW 1.1 mph1.8 kmh 29.87 in1011.5 mb 0.00 in0.0 mm 0.00 in0.0 mm 0.00 in0.0 mm
05:27 AM 41.7°F5.4°C 34.0°F1.1°C 74% 1.3 mph NW2.1 kmh NW 2.2 mph3.5 kmh 29.87 in1011.5 mb 0.00 in0.0 mm 0.00 in0.0 mm 0.00 in0.0 mm
05:26 AM 41.9°F5.5°C 34.2°F1.2°C 74% 1.8 mph NW2.9 kmh NW 2.2 mph3.5 kmh 29.87 in1011.5 mb 0.00 in0.0 mm 0.00 in0.0 mm 0.00 in0.0 mm
05:24 AM 41.9°F5.5°C 33.9°F1.1°C 73% 1.8 mph NW2.9 kmh NW 2.2 mph3.5 kmh 29.87 in1011.5 mb 0.00 in0.0 mm 0.00 in0.0 mm 0.00 in0.0 mm
05:23 AM 42.1°F5.6°C 34.1°F1.2°C 73% 1.8 mph NW2.9 kmh NW 2.2 mph3.5 kmh 29.87 in1011.5 mb 0.00 in0.0 mm 0.00 in0.0 mm 0.00 in0.0 mm
05:22 AM 42.1°F5.6°C 34.1°F1.2°C 73% 2.2 mph NW3.5 kmh NW 2.2 mph3.5 kmh 29.87 in1011.5 mb 0.00 in0.0 mm 0.00 in0.0 mm 0.00 in0.0 mm
05:20 AM 42.1°F5.6°C 34.1°F1.2°C 73% 1.8 mph NW2.9 kmh NW 2.2 mph3.5 kmh 29.87 in1011.5 mb 0.00 in0.0 mm 0.00 in0.0 mm 0.00 in0.0 mm
05:17 AM 41.7°F5.4°C 33.7°F0.9°C 73% 2.2 mph NW3.5 kmh NW 2.2 mph3.5 kmh 29.87 in1011.5 mb 0.00 in0.0 mm 0.00 in0.0 mm 0.00 in0.0 mm
05:16 AM 41.7°F5.4°C 34.0°F1.1°C 74% 1.8 mph NW2.9 kmh NW 2.2 mph3.5 kmh 29.88 in1011.9 mb 0.00 in0.0 mm 0.00 in0.0 mm 0.00 in0.0 mm
05:15 AM 41.7°F5.4°C 34.0°F1.1°C 74% 1.8 mph NW2.9 kmh NW 2.2 mph3.5 kmh 29.86 in1011.2 mb 0.00 in0.0 mm 0.00 in0.0 mm 0.00 in0.0 mm
05:14 AM 41.9°F5.5°C 34.2°F1.2°C 74% 1.3 mph NW2.1 kmh NW 2.2 mph3.5 kmh 29.87 in1011.5 mb 0.00 in0.0 mm 0.00 in0.0 mm 0.00 in0.0 mm
05:13 AM 42.1°F5.6°C 34.4°F1.3°C 74% 1.8 mph NW2.9 kmh NW 2.2 mph3.5 kmh 29.88 in1011.9 mb 0.00 in0.0 mm 0.00 in0.0 mm 0.00 in0.0 mm
05:12 AM 42.4°F5.8°C 34.7°F1.5°C 74% 2.2 mph NW3.5 kmh NW 2.2 mph3.5 kmh 29.88 in1011.9 mb 0.00 in0.0 mm 0.00 in0.0 mm 0.00 in0.0 mm
05:11 AM 42.8°F6.0°C 34.4°F1.3°C 72% 1.1 mph W1.8 kmh W 1.1 mph1.8 kmh 29.87 in1011.5 mb 0.00 in0.0 mm 0.00 in0.0 mm 0.00 in0.0 mm
05:09 AM 43.0°F6.1°C 34.3°F1.3°C 71% 0.9 mph WNW1.4 kmh WNW 1.1 mph1.8 kmh 29.87 in1011.5 mb 0.00 in0.0 mm 0.00 in0.0 mm 0.00 in0.0 mm
05:08 AM 43.0°F6.1°C 34.3°F1.3°C 71% 1.1 mph WNW1.8 kmh WNW 1.1 mph1.8 kmh 29.88 in1011.9 mb 0.00 in0.0 mm 0.00 in0.0 mm 0.00 in0.0 mm
05:07 AM 43.2°F6.2°C 34.4°F1.3°C 71% 1.3 mph WNW2.1 kmh WNW 2.2 mph3.5 kmh 29.88 in1011.9 mb 0.00 in0.0 mm 0.00 in0.0 mm 0.00 in0.0 mm
05:06 AM 42.8°F6.0°C 34.1°F1.2°C 71% 1.6 mph WNW2.6 kmh WNW 2.2 mph3.5 kmh 29.87 in1011.5 mb 0.00 in0.0 mm 0.00 in0.0 mm 0.00 in0.0 mm
05:04 AM 42.4°F5.8°C 33.7°F0.9°C 71% 1.3 mph WNW2.1 kmh WNW 2.2 mph3.5 kmh 29.87 in1011.5 mb 0.00 in0.0 mm 0.00 in0.0 mm 0.00 in0.0 mm
05:03 AM 41.9°F5.5°C 33.5°F0.8°C 72% 1.1 mph NW1.8 kmh NW 1.1 mph1.8 kmh 29.87 in1011.5 mb 0.00 in0.0 mm 0.00 in0.0 mm 0.00 in0.0 mm
05:02 AM 41.9°F5.5°C 33.9°F1.1°C 73% 2.2 mph NW3.5 kmh NW 2.2 mph3.5 kmh 29.87 in1011.5 mb 0.00 in0.0 mm 0.00 in0.0 mm 0.00 in0.0 mm
05:01 AM 41.9°F5.5°C 34.2°F1.2°C 74% 2.0 mph WNW3.2 kmh WNW 2.2 mph3.5 kmh 29.88 in1011.9 mb 0.00 in0.0 mm 0.00 in0.0 mm 0.00 in0.0 mm
04:59 AM 41.9°F5.5°C 33.9°F1.1°C 73% 0.9 mph WNW1.4 kmh WNW 1.1 mph1.8 kmh 29.87 in1011.5 mb 0.00 in0.0 mm 0.00 in0.0 mm 0.00 in0.0 mm
04:58 AM 42.1°F5.6°C 34.4°F1.3°C 74% 1.3 mph WNW2.1 kmh WNW 2.2 mph3.5 kmh 29.88 in1011.9 mb 0.00 in0.0 mm 0.00 in0.0 mm 0.00 in0.0 mm
04:57 AM 42.1°F5.6°C 34.4°F1.3°C 74% 0.7 mph WNW1.1 kmh WNW 1.1 mph1.8 kmh 29.88 in1011.9 mb 0.00 in0.0 mm 0.00 in0.0 mm 0.00 in0.0 mm
04:56 AM 42.3°F5.7°C 34.3°F1.3°C 73% 2.2 mph WNW3.5 kmh WNW 2.2 mph3.5 kmh 29.87 in1011.5 mb 0.00 in0.0 mm 0.00 in0.0 mm 0.00 in0.0 mm
04:55 AM 42.3°F5.7°C 34.3°F1.3°C 73% 1.3 mph WNW2.1 kmh WNW 2.2 mph3.5 kmh 29.88 in1011.9 mb 0.00 in0.0 mm 0.00 in0.0 mm 0.00 in0.0 mm
04:54 AM 42.4°F5.8°C 34.4°F1.3°C 73% 1.8 mph WNW2.9 kmh WNW 2.2 mph3.5 kmh 29.88 in1011.9 mb 0.00 in0.0 mm 0.00 in0.0 mm 0.00 in0.0 mm
04:52 AM 42.6°F5.9°C 34.6°F1.4°C 73% 1.8 mph WNW2.9 kmh WNW 2.2 mph3.5 kmh 29.87 in1011.5 mb 0.00 in0.0 mm 0.00 in0.0 mm 0.00 in0.0 mm
04:50 AM 43.0°F6.1°C 34.6°F1.4°C 72% 2.2 mph WNW3.5 kmh WNW 2.2 mph3.5 kmh 29.88 in1011.9 mb 0.00 in0.0 mm 0.00 in0.0 mm 0.00 in0.0 mm
04:49 AM 43.0°F6.1°C 34.3°F1.3°C 71% 2.2 mph WNW3.5 kmh WNW 2.2 mph3.5 kmh 29.88 in1011.9 mb 0.00 in0.0 mm 0.00 in0.0 mm 0.00 in0.0 mm
04:48 AM 43.2°F6.2°C 34.4°F1.3°C 71% 2.2 mph WNW3.5 kmh WNW 3.4 mph5.5 kmh 29.87 in1011.5 mb 0.00 in0.0 mm 0.00 in0.0 mm 0.00 in0.0 mm
04:47 AM 43.3°F6.3°C 34.5°F1.4°C 71% 1.8 mph WNW2.9 kmh WNW 2.2 mph3.5 kmh 29.88 in1011.9 mb 0.00 in0.0 mm 0.00 in0.0 mm 0.00 in0.0 mm
04:46 AM 43.3°F6.3°C 34.5°F1.4°C 71% 2.2 mph WNW3.5 kmh WNW 2.2 mph3.5 kmh 29.87 in1011.5 mb 0.00 in0.0 mm 0.00 in0.0 mm 0.00 in0.0 mm
04:45 AM 43.2°F6.2°C 34.1°F1.2°C 70% 1.3 mph WNW2.1 kmh WNW 2.2 mph3.5 kmh 29.88 in1011.9 mb 0.00 in0.0 mm 0.00 in0.0 mm 0.00 in0.0 mm
04:43 AM 42.8°F6.0°C 34.1°F1.2°C 71% 2.0 mph NW3.2 kmh NW 2.2 mph3.5 kmh 29.88 in1011.9 mb 0.00 in0.0 mm 0.00 in0.0 mm 0.00 in0.0 mm
04:41 AM 42.6°F5.9°C 33.9°F1.1°C 71% 1.1 mph NW1.8 kmh NW 1.1 mph1.8 kmh 29.89 in1012.2 mb 0.00 in0.0 mm 0.00 in0.0 mm 0.00 in0.0 mm
04:39 AM 42.8°F6.0°C 34.1°F1.2°C 71% 1.1 mph NW1.8 kmh NW 1.1 mph1.8 kmh 29.88 in1011.9 mb 0.00 in0.0 mm 0.00 in0.0 mm 0.00 in0.0 mm
04:38 AM 43.0°F6.1°C 34.3°F1.3°C 71% 1.1 mph NW1.8 kmh NW 1.1 mph1.8 kmh 29.88 in1011.9 mb 0.00 in0.0 mm 0.00 in0.0 mm 0.00 in0.0 mm
04:37 AM 43.0°F6.1°C 33.9°F1.1°C 70% 1.1 mph NW1.8 kmh NW 1.1 mph1.8 kmh 29.88 in1011.9 mb 0.00 in0.0 mm 0.00 in0.0 mm 0.00 in0.0 mm
04:35 AM 42.6°F5.9°C 33.9°F1.1°C 71% 1.8 mph NW2.9 kmh NW 2.2 mph3.5 kmh 29.88 in1011.9 mb 0.00 in0.0 mm 0.00 in0.0 mm 0.00 in0.0 mm
04:34 AM 43.0°F6.1°C 34.6°F1.4°C 72% 1.8 mph NW2.9 kmh NW 2.2 mph3.5 kmh 29.88 in1011.9 mb 0.00 in0.0 mm 0.00 in0.0 mm 0.00 in0.0 mm
04:33 AM 43.3°F6.3°C 34.5°F1.4°C 71% 1.8 mph NW2.9 kmh NW 2.2 mph3.5 kmh 29.88 in1011.9 mb 0.00 in0.0 mm 0.00 in0.0 mm 0.00 in0.0 mm
04:32 AM 43.3°F6.3°C 34.2°F1.2°C 70% 1.8 mph NW2.9 kmh NW 2.2 mph3.5 kmh 29.88 in1011.9 mb 0.00 in0.0 mm 0.00 in0.0 mm 0.00 in0.0 mm
04:31 AM 43.2°F6.2°C 33.7°F0.9°C 69% 1.6 mph NW2.6 kmh NW 2.2 mph3.5 kmh 29.88 in1011.9 mb 0.00 in0.0 mm 0.00 in0.0 mm 0.00 in0.0 mm
04:28 AM 42.4°F5.8°C 33.3°F0.7°C 70% 2.2 mph WNW3.5 kmh WNW 2.2 mph3.5 kmh 29.88 in1011.9 mb 0.00 in0.0 mm 0.00 in0.0 mm 0.00 in0.0 mm
04:27 AM 42.4°F5.8°C 33.7°F0.9°C 71% 2.2 mph WNW3.5 kmh WNW 2.2 mph3.5 kmh 29.88 in1011.9 mb 0.00 in0.0 mm 0.00 in0.0 mm 0.00 in0.0 mm
04:26 AM 42.6°F5.9°C 33.9°F1.1°C 71% 2.2 mph WNW3.5 kmh WNW 2.2 mph3.5 kmh 29.88 in1011.9 mb 0.00 in0.0 mm 0.00 in0.0 mm 0.00 in0.0 mm
04:24 AM 42.6°F5.9°C 33.9°F1.1°C 71% 2.2 mph W3.5 kmh W 2.2 mph3.5 kmh 29.88 in1011.9 mb 0.00 in0.0 mm 0.00 in0.0 mm 0.00 in0.0 mm
04:23 AM 42.8°F6.0°C 34.1°F1.2°C 71% 2.2 mph W3.5 kmh W 2.2 mph3.5 kmh 29.88 in1011.9 mb 0.00 in0.0 mm 0.00 in0.0 mm 0.00 in0.0 mm
04:22 AM 43.0°F6.1°C 34.3°F1.3°C 71% 1.3 mph W2.1 kmh W 2.2 mph3.5 kmh 29.88 in1011.9 mb 0.00 in0.0 mm 0.00 in0.0 mm 0.00 in0.0 mm
04:21 AM 43.3°F6.3°C 34.2°F1.2°C 70% 1.8 mph W2.9 kmh W 2.2 mph3.5 kmh 29.88 in1011.9 mb 0.00 in0.0 mm 0.00 in0.0 mm 0.00 in0.0 mm
04:19 AM 43.5°F6.4°C 34.4°F1.3°C 70% 1.6 mph W2.6 kmh W 2.2 mph3.5 kmh 29.88 in1011.9 mb 0.00 in0.0 mm 0.00 in0.0 mm 0.00 in0.0 mm
04:18 AM 43.7°F6.5°C 34.2°F1.2°C 69% 1.3 mph W2.1 kmh W 2.2 mph3.5 kmh 29.88 in1011.9 mb 0.00 in0.0 mm 0.00 in0.0 mm 0.00 in0.0 mm
04:17 AM 43.9°F6.6°C 34.4°F1.3°C 69% 1.8 mph W2.9 kmh W 2.2 mph3.5 kmh 29.89 in1012.2 mb 0.00 in0.0 mm 0.00 in0.0 mm 0.00 in0.0 mm
04:15 AM 44.2°F6.8°C 34.3°F1.3°C 68% 1.1 mph WNW1.8 kmh WNW 1.1 mph1.8 kmh 29.88 in1011.9 mb 0.00 in0.0 mm 0.00 in0.0 mm 0.00 in0.0 mm
04:14 AM 44.2°F6.8°C 33.9°F1.1°C 67% 0.2 mph WNW0.3 kmh WNW 1.1 mph1.8 kmh 29.88 in1011.9 mb 0.00 in0.0 mm 0.00 in0.0 mm 0.00 in0.0 mm
04:13 AM 44.2°F6.8°C 33.9°F1.1°C 67% 0.7 mph WNW1.1 kmh WNW 1.1 mph1.8 kmh 29.89 in1012.2 mb 0.00 in0.0 mm 0.00 in0.0 mm 0.00 in0.0 mm
04:12 AM 44.2°F6.8°C 34.3°F1.3°C 68% Calm Calm -- 29.88 in1011.9 mb 0.00 in0.0 mm 0.00 in0.0 mm 0.00 in0.0 mm
04:08 AM 44.4°F6.9°C 34.1°F1.2°C 67% Calm Calm -- 29.88 in1011.9 mb 0.00 in0.0 mm 0.00 in0.0 mm 0.00 in0.0 mm
04:07 AM 44.4°F6.9°C 34.1°F1.2°C 67% 0.7 mph WNW1.1 kmh WNW 1.1 mph1.8 kmh 29.88 in1011.9 mb 0.00 in0.0 mm 0.00 in0.0 mm 0.00 in0.0 mm
04:04 AM 44.4°F6.9°C 34.1°F1.2°C 67% 0.9 mph W1.4 kmh W 1.1 mph1.8 kmh 29.88 in1011.9 mb 0.00 in0.0 mm 0.00 in0.0 mm 0.00 in0.0 mm
04:02 AM 44.4°F6.9°C 34.1°F1.2°C 67% 0.2 mph W0.3 kmh W 1.1 mph1.8 kmh 29.89 in1012.2 mb 0.00 in0.0 mm 0.00 in0.0 mm 0.00 in0.0 mm
04:01 AM 44.6°F7.0°C 34.3°F1.3°C 67% 0.4 mph W0.6 kmh W 1.1 mph1.8 kmh 29.88 in1011.9 mb 0.00 in0.0 mm 0.00 in0.0 mm 0.00 in0.0 mm
03:59 AM 44.8°F7.1°C 34.5°F1.4°C 67% 0.7 mph W1.1 kmh W 1.1 mph1.8 kmh 29.88 in1011.9 mb 0.00 in0.0 mm 0.00 in0.0 mm 0.00 in0.0 mm
03:58 AM 44.8°F7.1°C 34.5°F1.4°C 67% 1.1 mph W1.8 kmh W 1.1 mph1.8 kmh 29.89 in1012.2 mb 0.00 in0.0 mm 0.00 in0.0 mm 0.00 in0.0 mm
03:56 AM 45.1°F7.3°C 34.4°F1.3°C 66% 1.3 mph W2.1 kmh W 2.2 mph3.5 kmh 29.89 in1012.2 mb 0.00 in0.0 mm 0.00 in0.0 mm 0.00 in0.0 mm
03:54 AM 45.0°F7.2°C 34.3°F1.3°C 66% 1.1 mph W1.8 kmh W 1.1 mph1.8 kmh 29.89 in1012.2 mb 0.00 in0.0 mm 0.00 in0.0 mm 0.00 in0.0 mm
03:53 AM 45.0°F7.2°C 34.3°F1.3°C 66% 1.1 mph W1.8 kmh W 1.1 mph1.8 kmh 29.88 in1011.9 mb 0.00 in0.0 mm 0.00 in0.0 mm 0.00 in0.0 mm
03:52 AM 45.0°F7.2°C 34.3°F1.3°C 66% 1.3 mph W2.1 kmh W 2.2 mph3.5 kmh 29.89 in1012.2 mb 0.00 in0.0 mm 0.00 in0.0 mm 0.00 in0.0 mm
03:51 AM 45.0°F7.2°C 34.3°F1.3°C 66% 1.3 mph W2.1 kmh W 2.2 mph3.5 kmh 29.89 in1012.2 mb 0.00 in0.0 mm 0.00 in0.0 mm 0.00 in0.0 mm
03:50 AM 45.0°F7.2°C 34.3°F1.3°C 66% 1.3 mph W2.1 kmh W 2.2 mph3.5 kmh 29.88 in1011.9 mb 0.00 in0.0 mm 0.00 in0.0 mm 0.00 in0.0 mm
03:49 AM 45.0°F7.2°C 34.3°F1.3°C 66% 1.3 mph WSW2.1 kmh WSW 2.2 mph3.5 kmh 29.89 in1012.2 mb 0.00 in0.0 mm 0.00 in0.0 mm 0.00 in0.0 mm
03:48 AM 44.8°F7.1°C 34.1°F1.2°C 66% Calm Calm -- 29.89 in1012.2 mb 0.00 in0.0 mm 0.00 in0.0 mm 0.00 in0.0 mm
03:46 AM 44.4°F6.9°C 34.1°F1.2°C 67% 1.6 mph WSW2.6 kmh WSW 2.2 mph3.5 kmh 29.88 in1011.9 mb 0.00 in0.0 mm 0.00 in0.0 mm 0.00 in0.0 mm
03:45 AM 43.9°F6.6°C 33.7°F0.9°C 67% Calm Calm -- 29.89 in1012.2 mb 0.00 in0.0 mm 0.00 in0.0 mm 0.00 in0.0 mm
03:44 AM 43.3°F6.3°C 33.5°F0.8°C 68% 1.1 mph WSW1.8 kmh WSW 1.1 mph1.8 kmh 29.89 in1012.2 mb 0.00 in0.0 mm 0.00 in0.0 mm 0.00 in0.0 mm
03:43 AM 43.0°F6.1°C 33.9°F1.1°C 70% 1.8 mph WSW2.9 kmh WSW 2.2 mph3.5 kmh 29.89 in1012.2 mb 0.00 in0.0 mm 0.00 in0.0 mm 0.00 in0.0 mm
03:41 AM 43.5°F6.4°C 34.7°F1.5°C 71% 1.3 mph W2.1 kmh W 2.2 mph3.5 kmh 29.89 in1012.2 mb 0.00 in0.0 mm 0.00 in0.0 mm 0.00 in0.0 mm
03:39 AM 43.9°F6.6°C 34.8°F1.6°C 70% 0.9 mph W1.4 kmh W 1.1 mph1.8 kmh 29.88 in1011.9 mb 0.00 in0.0 mm 0.00 in0.0 mm 0.00 in0.0 mm
03:38 AM 44.2°F6.8°C 34.7°F1.5°C 69% 1.1 mph W1.8 kmh W 1.1 mph1.8 kmh 29.88 in1011.9 mb 0.00 in0.0 mm 0.00 in0.0 mm 0.00 in0.0 mm
03:37 AM 44.8°F7.1°C 34.9°F1.6°C 68% 0.2 mph WNW0.3 kmh WNW 1.1 mph1.8 kmh 29.89 in1012.2 mb 0.00 in0.0 mm 0.00 in0.0 mm 0.00 in0.0 mm
03:36 AM 45.0°F7.2°C 34.7°F1.5°C 67% 1.6 mph WNW2.6 kmh WNW 2.2 mph3.5 kmh 29.89 in1012.2 mb 0.00 in0.0 mm 0.00 in0.0 mm 0.00 in0.0 mm
03:34 AM 45.1°F7.3°C 34.4°F1.3°C 66% 2.5 mph NW4.0 kmh NW 3.4 mph5.5 kmh 29.89 in1012.2 mb 0.00 in0.0 mm 0.00 in0.0 mm 0.00 in0.0 mm
03:33 AM 45.1°F7.3°C 34.8°F1.6°C 67% 1.6 mph WNW2.6 kmh WNW 2.2 mph3.5 kmh 29.89 in1012.2 mb 0.00 in0.0 mm 0.00 in0.0 mm 0.00 in0.0 mm
03:31 AM 45.1°F7.3°C 34.4°F1.3°C 66% 1.3 mph WNW2.1 kmh WNW 2.2 mph3.5 kmh 29.89 in1012.2 mb 0.00 in0.0 mm 0.00 in0.0 mm 0.00 in0.0 mm
03:29 AM 44.8°F7.1°C 34.5°F1.4°C 67% 1.6 mph WNW2.6 kmh WNW 2.2 mph3.5 kmh 29.89 in1012.2 mb 0.00 in0.0 mm 0.00 in0.0 mm 0.00 in0.0 mm
03:28 AM 44.6°F7.0°C 34.3°F1.3°C 67% 2.0 mph WNW3.2 kmh WNW 2.2 mph3.5 kmh 29.89 in1012.2 mb 0.00 in0.0 mm 0.00 in0.0 mm 0.00 in0.0 mm
03:27 AM 44.6°F7.0°C 34.7°F1.5°C 68% 2.2 mph W3.5 kmh W 2.2 mph3.5 kmh 29.89 in1012.2 mb 0.00 in0.0 mm 0.00 in0.0 mm 0.00 in0.0 mm
03:24 AM 44.2°F6.8°C 34.3°F1.3°C 68% 1.3 mph WSW2.1 kmh WSW 2.2 mph3.5 kmh 29.89 in1012.2 mb 0.00 in0.0 mm 0.00 in0.0 mm 0.00 in0.0 mm
03:22 AM 43.9°F6.6°C 34.4°F1.3°C 69% 1.8 mph W2.9 kmh W 2.2 mph3.5 kmh 29.89 in1012.2 mb 0.00 in0.0 mm 0.00 in0.0 mm 0.00 in0.0 mm
03:21 AM 43.7°F6.5°C 34.2°F1.2°C 69% 1.3 mph W2.1 kmh W 2.2 mph3.5 kmh 29.89 in1012.2 mb 0.00 in0.0 mm 0.00 in0.0 mm 0.00 in0.0 mm
03:20 AM 43.7°F6.5°C 34.2°F1.2°C 69% 2.2 mph W3.5 kmh W 2.2 mph3.5 kmh 29.89 in1012.2 mb 0.00 in0.0 mm 0.00 in0.0 mm 0.00 in0.0 mm
03:19 AM 43.7°F6.5°C 34.2°F1.2°C 69% 1.1 mph W1.8 kmh W 1.1 mph1.8 kmh 29.89 in1012.2 mb 0.00 in0.0 mm 0.00 in0.0 mm 0.00 in0.0 mm
03:17 AM 44.1°F6.7°C 34.6°F1.4°C 69% 1.8 mph WNW2.9 kmh WNW 2.2 mph3.5 kmh 29.90 in1012.5 mb 0.00 in0.0 mm 0.00 in0.0 mm 0.00 in0.0 mm
03:16 AM 44.2°F6.8°C 34.7°F1.5°C 69% Calm Calm -- 29.89 in1012.2 mb 0.00 in0.0 mm 0.00 in0.0 mm 0.00 in0.0 mm
03:15 AM 44.4°F6.9°C 34.5°F1.4°C 68% 1.3 mph WNW2.1 kmh WNW 2.2 mph3.5 kmh 29.90 in1012.5 mb 0.00 in0.0 mm 0.00 in0.0 mm 0.00 in0.0 mm
03:14 AM 44.2°F6.8°C 33.9°F1.1°C 67% 2.2 mph WNW3.5 kmh WNW 2.2 mph3.5 kmh 29.89 in1012.2 mb 0.00 in0.0 mm 0.00 in0.0 mm 0.00 in0.0 mm
03:13 AM 44.1°F6.7°C 34.2°F1.2°C 68% 2.0 mph NW3.2 kmh NW 2.2 mph3.5 kmh 29.89 in1012.2 mb 0.00 in0.0 mm 0.00 in0.0 mm 0.00 in0.0 mm
03:11 AM 44.1°F6.7°C 34.2°F1.2°C 68% 2.2 mph WNW3.5 kmh WNW 2.2 mph3.5 kmh 29.90 in1012.5 mb 0.00 in0.0 mm 0.00 in0.0 mm 0.00 in0.0 mm
03:09 AM 44.1°F6.7°C 33.9°F1.1°C 67% 1.6 mph WNW2.6 kmh WNW 2.2 mph3.5 kmh 29.90 in1012.5 mb 0.00 in0.0 mm 0.00 in0.0 mm 0.00 in0.0 mm
03:08 AM 44.4°F6.9°C 34.1°F1.2°C 67% 1.8 mph WNW2.9 kmh WNW 2.2 mph3.5 kmh 29.89 in1012.2 mb 0.00 in0.0 mm 0.00 in0.0 mm 0.00 in0.0 mm
03:06 AM 45.0°F7.2°C 34.3°F1.3°C 66% 1.1 mph W1.8 kmh W 1.1 mph1.8 kmh 29.89 in1012.2 mb 0.00 in0.0 mm 0.00 in0.0 mm 0.00 in0.0 mm
03:05 AM 45.1°F7.3°C 34.4°F1.3°C 66% 2.2 mph WNW3.5 kmh WNW 2.2 mph3.5 kmh 29.89 in1012.2 mb 0.00 in0.0 mm 0.00 in0.0 mm 0.00 in0.0 mm
03:04 AM 45.3°F7.4°C 34.2°F1.2°C 65% 2.0 mph WNW3.2 kmh WNW 2.2 mph3.5 kmh 29.90 in1012.5 mb 0.00 in0.0 mm 0.00 in0.0 mm 0.00 in0.0 mm
03:03 AM 45.1°F7.3°C 34.0°F1.1°C 65% 2.2 mph WNW3.5 kmh WNW 2.2 mph3.5 kmh 29.90 in1012.5 mb 0.00 in0.0 mm 0.00 in0.0 mm 0.00 in0.0 mm
03:00 AM 45.0°F7.2°C 34.0°F1.1°C 65% 2.2 mph WNW3.5 kmh WNW 2.2 mph3.5 kmh 29.90 in1012.5 mb 0.00 in0.0 mm 0.00 in0.0 mm 0.00 in0.0 mm
02:59 AM 45.0°F7.2°C 34.0°F1.1°C 65% 2.2 mph WNW3.5 kmh WNW 2.2 mph3.5 kmh 29.89 in1012.2 mb 0.00 in0.0 mm 0.00 in0.0 mm 0.00 in0.0 mm
02:58 AM 45.0°F7.2°C 34.0°F1.1°C 65% 2.2 mph WNW3.5 kmh WNW 2.2 mph3.5 kmh 29.90 in1012.5 mb 0.00 in0.0 mm 0.00 in0.0 mm 0.00 in0.0 mm
02:57 AM 44.8°F7.1°C 33.8°F1.0°C 65% 2.5 mph WNW4.0 kmh WNW 3.4 mph5.5 kmh 29.90 in1012.5 mb 0.00 in0.0 mm 0.00 in0.0 mm 0.00 in0.0 mm
02:56 AM 44.6°F7.0°C 34.0°F1.1°C 66% 2.2 mph WNW3.5 kmh WNW 2.2 mph3.5 kmh 29.90 in1012.5 mb 0.00 in0.0 mm 0.00 in0.0 mm 0.00 in0.0 mm
02:54 AM 44.4°F6.9°C 33.8°F1.0°C 66% 1.8 mph WNW2.9 kmh WNW 2.2 mph3.5 kmh 29.89 in1012.2 mb 0.00 in0.0 mm 0.00 in0.0 mm 0.00 in0.0 mm
02:52 AM 44.6°F7.0°C 34.0°F1.1°C 66% 2.2 mph WNW3.5 kmh WNW 2.2 mph3.5 kmh 29.90 in1012.5 mb 0.00 in0.0 mm 0.00 in0.0 mm 0.00 in0.0 mm
02:51 AM 44.6°F7.0°C 34.0°F1.1°C 66% 1.8 mph WNW2.9 kmh WNW 2.2 mph3.5 kmh 29.90 in1012.5 mb 0.00 in0.0 mm 0.00 in0.0 mm 0.00 in0.0 mm
02:50 AM 44.8°F7.1°C 34.1°F1.2°C 66% 2.2 mph WNW3.5 kmh WNW 2.2 mph3.5 kmh 29.90 in1012.5 mb 0.00 in0.0 mm 0.00 in0.0 mm 0.00 in0.0 mm
02:49 AM 44.8°F7.1°C 33.8°F1.0°C 65% 2.2 mph WNW3.5 kmh WNW 2.2 mph3.5 kmh 29.90 in1012.5 mb 0.00 in0.0 mm 0.00 in0.0 mm 0.00 in0.0 mm
02:48 AM 44.8°F7.1°C 33.8°F1.0°C 65% 2.0 mph WNW3.2 kmh WNW 2.2 mph3.5 kmh 29.90 in1012.5 mb 0.00 in0.0 mm 0.00 in0.0 mm 0.00 in0.0 mm
02:47 AM 44.4°F6.9°C 33.4°F0.8°C 65% 2.2 mph W3.5 kmh W 2.2 mph3.5 kmh 29.89 in1012.2 mb 0.00 in0.0 mm 0.00 in0.0 mm 0.00 in0.0 mm
02:46 AM 44.4°F6.9°C 33.8°F1.0°C 66% 2.2 mph WNW3.5 kmh WNW 2.2 mph3.5 kmh 29.90 in1012.5 mb 0.00 in0.0 mm 0.00 in0.0 mm 0.00 in0.0 mm
02:45 AM 44.4°F6.9°C 34.1°F1.2°C 67% 2.2 mph WNW3.5 kmh WNW 2.2 mph3.5 kmh 29.90 in1012.5 mb 0.00 in0.0 mm 0.00 in0.0 mm 0.00 in0.0 mm
02:44 AM 44.4°F6.9°C 33.8°F1.0°C 66% 2.2 mph WNW3.5 kmh WNW 2.2 mph3.5 kmh 29.91 in1012.9 mb 0.00 in0.0 mm 0.00 in0.0 mm 0.00 in0.0 mm
02:43 AM 44.6°F7.0°C 34.0°F1.1°C 66% 2.2 mph WNW3.5 kmh WNW 2.2 mph3.5 kmh 29.89 in1012.2 mb 0.00 in0.0 mm 0.00 in0.0 mm 0.00 in0.0 mm
02:42 AM 44.8°F7.1°C 34.1°F1.2°C 66% 2.2 mph WNW3.5 kmh WNW 2.2 mph3.5 kmh 29.90 in1012.5 mb 0.00 in0.0 mm 0.00 in0.0 mm 0.00 in0.0 mm
02:41 AM 45.0°F7.2°C 34.0°F1.1°C 65% 2.0 mph WNW3.2 kmh WNW 2.2 mph3.5 kmh 29.90 in1012.5 mb 0.00 in0.0 mm 0.00 in0.0 mm 0.00 in0.0 mm
02:40 AM 45.3°F7.4°C 34.6°F1.4°C 66% 2.2 mph WNW3.5 kmh WNW 3.4 mph5.5 kmh 29.90 in1012.5 mb 0.00 in0.0 mm 0.00 in0.0 mm 0.00 in0.0 mm
02:39 AM 45.5°F7.5°C 34.4°F1.3°C 65% 2.5 mph WNW4.0 kmh WNW 3.4 mph5.5 kmh 29.90 in1012.5 mb 0.00 in0.0 mm 0.00 in0.0 mm 0.00 in0.0 mm
02:37 AM 45.1°F7.3°C 33.7°F0.9°C 64% 2.2 mph WNW3.5 kmh WNW 2.2 mph3.5 kmh 29.91 in1012.9 mb 0.00 in0.0 mm 0.00 in0.0 mm 0.00 in0.0 mm
02:35 AM 44.8°F7.1°C 33.8°F1.0°C 65% 1.8 mph WNW2.9 kmh WNW 2.2 mph3.5 kmh 29.90 in1012.5 mb 0.00 in0.0 mm 0.00 in0.0 mm 0.00 in0.0 mm
02:34 AM 44.8°F7.1°C 34.1°F1.2°C 66% 2.0 mph WNW3.2 kmh WNW 2.2 mph3.5 kmh 29.90 in1012.5 mb 0.00 in0.0 mm 0.00 in0.0 mm 0.00 in0.0 mm
02:32 AM 44.8°F7.1°C 33.8°F1.0°C 65% 1.3 mph WNW2.1 kmh WNW 2.2 mph3.5 kmh 29.90 in1012.5 mb 0.00 in0.0 mm 0.00 in0.0 mm 0.00 in0.0 mm
02:31 AM 44.8°F7.1°C 33.8°F1.0°C 65% 2.0 mph NW3.2 kmh NW 2.2 mph3.5 kmh 29.90 in1012.5 mb 0.00 in0.0 mm 0.00 in0.0 mm 0.00 in0.0 mm
02:30 AM 44.8°F7.1°C 33.8°F1.0°C 65% 2.0 mph WNW3.2 kmh WNW 2.2 mph3.5 kmh 29.90 in1012.5 mb 0.00 in0.0 mm 0.00 in0.0 mm 0.00 in0.0 mm
02:29 AM 44.8°F7.1°C 34.1°F1.2°C 66% 2.2 mph WNW3.5 kmh WNW 2.2 mph3.5 kmh 29.90 in1012.5 mb 0.00 in0.0 mm 0.00 in0.0 mm 0.00 in0.0 mm
02:26 AM 45.0°F7.2°C 34.3°F1.3°C 66% 1.8 mph WNW2.9 kmh WNW 2.2 mph3.5 kmh 29.90 in1012.5 mb 0.00 in0.0 mm 0.00 in0.0 mm 0.00 in0.0 mm
02:25 AM 45.1°F7.3°C 34.0°F1.1°C 65% 2.2 mph WNW3.5 kmh WNW 2.2 mph3.5 kmh 29.90 in1012.5 mb 0.00 in0.0 mm 0.00 in0.0 mm 0.00 in0.0 mm
02:24 AM 45.1°F7.3°C 34.0°F1.1°C 65% 1.8 mph WNW2.9 kmh WNW 2.2 mph3.5 kmh 29.90 in1012.5 mb 0.00 in0.0 mm 0.00 in0.0 mm 0.00 in0.0 mm
02:22 AM 45.3°F7.4°C 34.2°F1.2°C 65% 1.6 mph WNW2.6 kmh WNW 2.2 mph3.5 kmh 29.90 in1012.5 mb 0.00 in0.0 mm 0.00 in0.0 mm 0.00 in0.0 mm
02:21 AM 45.3°F7.4°C 34.2°F1.2°C 65% 1.3 mph NW2.1 kmh NW 2.2 mph3.5 kmh 29.90 in1012.5 mb 0.00 in0.0 mm 0.00 in0.0 mm 0.00 in0.0 mm
02:20 AM 45.1°F7.3°C 34.0°F1.1°C 65% 1.3 mph WNW2.1 kmh WNW 2.2 mph3.5 kmh 29.90 in1012.5 mb 0.00 in0.0 mm 0.00 in0.0 mm 0.00 in0.0 mm
02:19 AM 45.1°F7.3°C 34.0°F1.1°C 65% 1.3 mph WNW2.1 kmh WNW 2.2 mph3.5 kmh 29.90 in1012.5 mb 0.00 in0.0 mm 0.00 in0.0 mm 0.00 in0.0 mm
02:18 AM 45.0°F7.2°C 34.0°F1.1°C 65% 1.8 mph WNW2.9 kmh WNW 2.2 mph3.5 kmh 29.90 in1012.5 mb 0.00 in0.0 mm 0.00 in0.0 mm 0.00 in0.0 mm
02:17 AM 45.0°F7.2°C 34.3°F1.3°C 66% 2.0 mph W3.2 kmh W 2.2 mph3.5 kmh 29.91 in1012.9 mb 0.00 in0.0 mm 0.00 in0.0 mm 0.00 in0.0 mm
02:16 AM 44.8°F7.1°C 34.1°F1.2°C 66% 2.7 mph WNW4.3 kmh WNW 3.4 mph5.5 kmh 29.91 in1012.9 mb 0.00 in0.0 mm 0.00 in0.0 mm 0.00 in0.0 mm
02:15 AM 44.4°F6.9°C 33.8°F1.0°C 66% 2.5 mph WNW4.0 kmh WNW 3.4 mph5.5 kmh 29.91 in1012.9 mb 0.00 in0.0 mm 0.00 in0.0 mm 0.00 in0.0 mm
02:14 AM 44.4°F6.9°C 34.5°F1.4°C 68% 1.6 mph WNW2.6 kmh WNW 2.2 mph3.5 kmh 29.90 in1012.5 mb 0.00 in0.0 mm 0.00 in0.0 mm 0.00 in0.0 mm
02:13 AM 44.6°F7.0°C 34.3°F1.3°C 67% 2.5 mph WNW4.0 kmh WNW 3.4 mph5.5 kmh 29.91 in1012.9 mb 0.00 in0.0 mm 0.00 in0.0 mm 0.00 in0.0 mm
02:10 AM 44.6°F7.0°C 34.3°F1.3°C 67% 2.2 mph WNW3.5 kmh WNW 2.2 mph3.5 kmh 29.91 in1012.9 mb 0.00 in0.0 mm 0.00 in0.0 mm 0.00 in0.0 mm
02:09 AM 44.6°F7.0°C 34.3°F1.3°C 67% 2.0 mph WNW3.2 kmh WNW 2.2 mph3.5 kmh 29.90 in1012.5 mb 0.00 in0.0 mm 0.00 in0.0 mm 0.00 in0.0 mm
02:07 AM 44.6°F7.0°C 34.3°F1.3°C 67% 2.0 mph NW3.2 kmh NW 2.2 mph3.5 kmh 29.90 in1012.5 mb 0.00 in0.0 mm 0.00 in0.0 mm 0.00 in0.0 mm
02:06 AM 44.6°F7.0°C 34.3°F1.3°C 67% 1.8 mph WNW2.9 kmh WNW 2.2 mph3.5 kmh 29.90 in1012.5 mb 0.00 in0.0 mm 0.00 in0.0 mm 0.00 in0.0 mm
02:03 AM 45.1°F7.3°C 34.4°F1.3°C 66% 1.3 mph WNW2.1 kmh WNW 2.2 mph3.5 kmh 29.91 in1012.9 mb 0.00 in0.0 mm 0.00 in0.0 mm 0.00 in0.0 mm
02:02 AM 45.3°F7.4°C 34.6°F1.4°C 66% 2.2 mph NW3.5 kmh NW 2.2 mph3.5 kmh 29.90 in1012.5 mb 0.00 in0.0 mm 0.00 in0.0 mm 0.00 in0.0 mm
02:01 AM 45.3°F7.4°C 34.2°F1.2°C 65% 2.0 mph WNW3.2 kmh WNW 2.2 mph3.5 kmh 29.91 in1012.9 mb 0.00 in0.0 mm 0.00 in0.0 mm 0.00 in0.0 mm
01:59 AM 44.8°F7.1°C 33.8°F1.0°C 65% 2.2 mph WNW3.5 kmh WNW 2.2 mph3.5 kmh 29.91 in1012.9 mb 0.00 in0.0 mm 0.00 in0.0 mm 0.00 in0.0 mm
01:57 AM 44.6°F7.0°C 34.3°F1.3°C 67% 2.5 mph NW4.0 kmh NW 3.4 mph5.5 kmh 29.92 in1013.2 mb 0.00 in0.0 mm 0.00 in0.0 mm 0.00 in0.0 mm
01:55 AM 44.8°F7.1°C 34.5°F1.4°C 67% 1.8 mph WNW2.9 kmh WNW 2.2 mph3.5 kmh 29.90 in1012.5 mb 0.00 in0.0 mm 0.00 in0.0 mm 0.00 in0.0 mm
01:54 AM 44.8°F7.1°C 34.5°F1.4°C 67% 1.3 mph NW2.1 kmh NW 2.2 mph3.5 kmh 29.90 in1012.5 mb 0.00 in0.0 mm 0.00 in0.0 mm 0.00 in0.0 mm
01:53 AM 45.0°F7.2°C 34.3°F1.3°C 66% 2.2 mph WNW3.5 kmh WNW 2.2 mph3.5 kmh 29.91 in1012.9 mb 0.00 in0.0 mm 0.00 in0.0 mm 0.00 in0.0 mm
01:50 AM 45.1°F7.3°C 34.4°F1.3°C 66% 1.8 mph WNW2.9 kmh WNW 2.2 mph3.5 kmh 29.91 in1012.9 mb 0.00 in0.0 mm 0.00 in0.0 mm 0.00 in0.0 mm
01:49 AM 45.5°F7.5°C 34.8°F1.6°C 66% 2.2 mph WNW3.5 kmh WNW 2.2 mph3.5 kmh 29.91 in1012.9 mb 0.00 in0.0 mm 0.00 in0.0 mm 0.00 in0.0 mm
01:48 AM 45.7°F7.6°C 34.2°F1.2°C 64% 1.6 mph WNW2.6 kmh WNW 2.2 mph3.5 kmh 29.92 in1013.2 mb 0.00 in0.0 mm 0.00 in0.0 mm 0.00 in0.0 mm
01:45 AM 45.7°F7.6°C 34.2°F1.2°C 64% 2.2 mph WNW3.5 kmh WNW 2.2 mph3.5 kmh 29.91 in1012.9 mb 0.00 in0.0 mm 0.00 in0.0 mm 0.00 in0.0 mm
01:43 AM 45.3°F7.4°C 33.9°F1.1°C 64% 1.8 mph WNW2.9 kmh WNW 2.2 mph3.5 kmh 29.90 in1012.5 mb 0.00 in0.0 mm 0.00 in0.0 mm 0.00 in0.0 mm
01:42 AM 45.3°F7.4°C 34.2°F1.2°C 65% 2.2 mph WNW3.5 kmh WNW 2.2 mph3.5 kmh 29.91 in1012.9 mb 0.00 in0.0 mm 0.00 in0.0 mm 0.00 in0.0 mm
01:41 AM 45.3°F7.4°C 34.2°F1.2°C 65% 2.2 mph WNW3.5 kmh WNW 2.2 mph3.5 kmh 29.91 in1012.9 mb 0.00 in0.0 mm 0.00 in0.0 mm 0.00 in0.0 mm
01:40 AM 45.3°F7.4°C 34.2°F1.2°C 65% 2.2 mph WNW3.5 kmh WNW 2.2 mph3.5 kmh 29.91 in1012.9 mb 0.00 in0.0 mm 0.00 in0.0 mm 0.00 in0.0 mm
01:38 AM 45.5°F7.5°C 34.4°F1.3°C 65% 2.7 mph WNW4.3 kmh WNW 3.4 mph5.5 kmh 29.91 in1012.9 mb 0.00 in0.0 mm 0.00 in0.0 mm 0.00 in0.0 mm
01:37 AM 45.7°F7.6°C 34.6°F1.4°C 65% 2.5 mph WNW4.0 kmh WNW 3.4 mph5.5 kmh 29.91 in1012.9 mb 0.00 in0.0 mm 0.00 in0.0 mm 0.00 in0.0 mm
01:36 AM 45.7°F7.6°C 34.6°F1.4°C 65% 2.5 mph WNW4.0 kmh WNW 3.4 mph5.5 kmh 29.90 in1012.5 mb 0.00 in0.0 mm 0.00 in0.0 mm 0.00 in0.0 mm
01:35 AM 45.3°F7.4°C 33.9°F1.1°C 64% 1.8 mph W2.9 kmh W 2.2 mph3.5 kmh 29.91 in1012.9 mb 0.00 in0.0 mm 0.00 in0.0 mm 0.00 in0.0 mm
01:34 AM 45.0°F7.2°C 34.0°F1.1°C 65% 2.0 mph W3.2 kmh W 2.2 mph3.5 kmh 29.91 in1012.9 mb 0.00 in0.0 mm 0.00 in0.0 mm 0.00 in0.0 mm
01:33 AM 45.0°F7.2°C 34.0°F1.1°C 65% 2.2 mph W3.5 kmh W 2.2 mph3.5 kmh 29.91 in1012.9 mb 0.00 in0.0 mm 0.00 in0.0 mm 0.00 in0.0 mm
01:31 AM 45.3°F7.4°C 34.6°F1.4°C 66% 2.2 mph W3.5 kmh W 2.2 mph3.5 kmh 29.91 in1012.9 mb 0.00 in0.0 mm 0.00 in0.0 mm 0.00 in0.0 mm
01:30 AM 45.5°F7.5°C 34.4°F1.3°C 65% 2.5 mph W4.0 kmh W 3.4 mph5.5 kmh 29.91 in1012.9 mb 0.00 in0.0 mm 0.00 in0.0 mm 0.00 in0.0 mm
01:29 AM 45.7°F7.6°C 34.6°F1.4°C 65% 1.8 mph W2.9 kmh W 2.2 mph3.5 kmh 29.91 in1012.9 mb 0.00 in0.0 mm 0.00 in0.0 mm 0.00 in0.0 mm
01:28 AM 45.7°F7.6°C 34.6°F1.4°C 65% 2.2 mph WNW3.5 kmh WNW 3.4 mph5.5 kmh 29.91 in1012.9 mb 0.00 in0.0 mm 0.00 in0.0 mm 0.00 in0.0 mm
01:27 AM 45.7°F7.6°C 34.6°F1.4°C 65% 2.2 mph WNW3.5 kmh WNW 2.2 mph3.5 kmh 29.91 in1012.9 mb 0.00 in0.0 mm 0.00 in0.0 mm 0.00 in0.0 mm
01:26 AM 45.9°F7.7°C 34.4°F1.3°C 64% 2.0 mph WNW3.2 kmh WNW 2.2 mph3.5 kmh 29.91 in1012.9 mb 0.00 in0.0 mm 0.00 in0.0 mm 0.00 in0.0 mm
01:25 AM 45.9°F7.7°C 34.4°F1.3°C 64% 1.3 mph WNW2.1 kmh WNW 2.2 mph3.5 kmh 29.91 in1012.9 mb 0.00 in0.0 mm 0.00 in0.0 mm 0.00 in0.0 mm
01:24 AM 45.9°F7.7°C 34.4°F1.3°C 64% 2.0 mph WNW3.2 kmh WNW 2.2 mph3.5 kmh 29.92 in1013.2 mb 0.00 in0.0 mm 0.00 in0.0 mm 0.00 in0.0 mm
01:23 AM 45.9°F7.7°C 34.4°F1.3°C 64% 1.8 mph WNW2.9 kmh WNW 2.2 mph3.5 kmh 29.91 in1012.9 mb 0.00 in0.0 mm 0.00 in0.0 mm 0.00 in0.0 mm
01:22 AM 45.7°F7.6°C 34.2°F1.2°C 64% 1.3 mph WNW2.1 kmh WNW 2.2 mph3.5 kmh 29.91 in1012.9 mb 0.00 in0.0 mm 0.00 in0.0 mm 0.00 in0.0 mm
01:20 AM 45.5°F7.5°C 34.0°F1.1°C 64% 1.8 mph NW2.9 kmh NW 2.2 mph3.5 kmh 29.91 in1012.9 mb 0.00 in0.0 mm 0.00 in0.0 mm 0.00 in0.0 mm
01:19 AM 45.3°F7.4°C 34.2°F1.2°C 65% 2.2 mph NW3.5 kmh NW 2.2 mph3.5 kmh 29.91 in1012.9 mb 0.00 in0.0 mm 0.00 in0.0 mm 0.00 in0.0 mm
01:18 AM 45.1°F7.3°C 34.4°F1.3°C 66% 2.2 mph NW3.5 kmh NW 2.2 mph3.5 kmh 29.91 in1012.9 mb 0.00 in0.0 mm 0.00 in0.0 mm 0.00 in0.0 mm
01:16 AM 45.3°F7.4°C 34.6°F1.4°C 66% 1.6 mph NW2.6 kmh NW 2.2 mph3.5 kmh 29.91 in1012.9 mb 0.00 in0.0 mm 0.00 in0.0 mm 0.00 in0.0 mm
01:15 AM 45.5°F7.5°C 34.8°F1.6°C 66% 1.3 mph NW2.1 kmh NW 2.2 mph3.5 kmh 29.91 in1012.9 mb 0.00 in0.0 mm 0.00 in0.0 mm 0.00 in0.0 mm
01:14 AM 45.7°F7.6°C 34.6°F1.4°C 65% 2.2 mph NW3.5 kmh NW 2.2 mph3.5 kmh 29.91 in1012.9 mb 0.00 in0.0 mm 0.00 in0.0 mm 0.00 in0.0 mm
01:13 AM 45.7°F7.6°C 34.2°F1.2°C 64% 1.8 mph NW2.9 kmh NW 2.2 mph3.5 kmh 29.91 in1012.9 mb 0.00 in0.0 mm 0.00 in0.0 mm 0.00 in0.0 mm
01:12 AM 45.7°F7.6°C 34.6°F1.4°C 65% 2.2 mph NW3.5 kmh NW 2.2 mph3.5 kmh 29.91 in1012.9 mb 0.00 in0.0 mm 0.00 in0.0 mm 0.00 in0.0 mm
01:11 AM 45.9°F7.7°C 34.4°F1.3°C 64% 1.1 mph NW1.8 kmh NW 1.1 mph1.8 kmh 29.91 in1012.9 mb 0.00 in0.0 mm 0.00 in0.0 mm 0.00 in0.0 mm
01:10 AM 46.0°F7.8°C 34.5°F1.4°C 64% 2.0 mph NW3.2 kmh NW 2.2 mph3.5 kmh 29.92 in1013.2 mb 0.00 in0.0 mm 0.00 in0.0 mm 0.00 in0.0 mm
01:09 AM 46.0°F7.8°C 34.5°F1.4°C 64% 1.8 mph NW2.9 kmh NW 2.2 mph3.5 kmh 29.91 in1012.9 mb 0.00 in0.0 mm 0.00 in0.0 mm 0.00 in0.0 mm
01:08 AM 46.0°F7.8°C 34.1°F1.2°C 63% 1.6 mph NW2.6 kmh NW 2.2 mph3.5 kmh 29.91 in1012.9 mb 0.00 in0.0 mm 0.00 in0.0 mm 0.00 in0.0 mm
01:06 AM 45.5°F7.5°C 33.6°F0.9°C 63% 0.9 mph NW1.4 kmh NW 1.1 mph1.8 kmh 29.91 in1012.9 mb 0.00 in0.0 mm 0.00 in0.0 mm 0.00 in0.0 mm
01:05 AM 45.1°F7.3°C 33.3°F0.7°C 63% 0.9 mph NW1.4 kmh NW 1.1 mph1.8 kmh 29.91 in1012.9 mb 0.00 in0.0 mm 0.00 in0.0 mm 0.00 in0.0 mm
01:03 AM 45.5°F7.5°C 34.8°F1.6°C 66% 1.8 mph NW2.9 kmh NW 2.2 mph3.5 kmh 29.91 in1012.9 mb 0.00 in0.0 mm 0.00 in0.0 mm 0.00 in0.0 mm
01:02 AM 45.9°F7.7°C 35.2°F1.8°C 66% 1.3 mph WNW2.1 kmh WNW 2.2 mph3.5 kmh 29.91 in1012.9 mb 0.00 in0.0 mm 0.00 in0.0 mm 0.00 in0.0 mm
01:01 AM 45.5°F7.5°C 34.0°F1.1°C 64% 0.7 mph WNW1.1 kmh WNW 1.1 mph1.8 kmh 29.92 in1013.2 mb 0.00 in0.0 mm 0.00 in0.0 mm 0.00 in0.0 mm
12:59 AM 45.0°F7.2°C 33.2°F0.7°C 63% 1.3 mph NW2.1 kmh NW 2.2 mph3.5 kmh 29.91 in1012.9 mb 0.00 in0.0 mm 0.00 in0.0 mm 0.00 in0.0 mm
12:58 AM 44.8°F7.1°C 33.8°F1.0°C 65% 1.3 mph NW2.1 kmh NW 2.2 mph3.5 kmh 29.91 in1012.9 mb 0.00 in0.0 mm 0.00 in0.0 mm 0.00 in0.0 mm
12:57 AM 44.8°F7.1°C 34.1°F1.2°C 66% 1.8 mph NW2.9 kmh NW 2.2 mph3.5 kmh 29.91 in1012.9 mb 0.00 in0.0 mm 0.00 in0.0 mm 0.00 in0.0 mm
12:56 AM 45.0°F7.2°C 34.3°F1.3°C 66% 1.1 mph WNW1.8 kmh WNW 1.1 mph1.8 kmh 29.91 in1012.9 mb 0.00 in0.0 mm 0.00 in0.0 mm 0.00 in0.0 mm
12:54 AM 45.0°F7.2°C 34.3°F1.3°C 66% 1.1 mph WNW1.8 kmh WNW 1.1 mph1.8 kmh 29.91 in1012.9 mb 0.00 in0.0 mm 0.00 in0.0 mm 0.00 in0.0 mm
12:53 AM 45.1°F7.3°C 34.4°F1.3°C 66% 1.3 mph WNW2.1 kmh WNW 2.2 mph3.5 kmh 29.92 in1013.2 mb 0.00 in0.0 mm 0.00 in0.0 mm 0.00 in0.0 mm
12:52 AM 45.1°F7.3°C 34.4°F1.3°C 66% 1.8 mph WNW2.9 kmh WNW 2.2 mph3.5 kmh 29.91 in1012.9 mb 0.00 in0.0 mm 0.00 in0.0 mm 0.00 in0.0 mm
12:51 AM 45.3°F7.4°C 34.2°F1.2°C 65% 2.2 mph WNW3.5 kmh WNW 2.2 mph3.5 kmh 29.91 in1012.9 mb 0.00 in0.0 mm 0.00 in0.0 mm 0.00 in0.0 mm
12:50 AM 45.3°F7.4°C 34.2°F1.2°C 65% 2.0 mph WNW3.2 kmh WNW 2.2 mph3.5 kmh 29.91 in1012.9 mb 0.00 in0.0 mm 0.00 in0.0 mm 0.00 in0.0 mm
12:49 AM 45.5°F7.5°C 34.4°F1.3°C 65% 2.0 mph NW3.2 kmh NW 2.2 mph3.5 kmh 29.91 in1012.9 mb 0.00 in0.0 mm 0.00 in0.0 mm 0.00 in0.0 mm
12:48 AM 45.5°F7.5°C 34.0°F1.1°C 64% 2.2 mph WNW3.5 kmh WNW 2.2 mph3.5 kmh 29.91 in1012.9 mb 0.00 in0.0 mm 0.00 in0.0 mm 0.00 in0.0 mm
12:47 AM 45.5°F7.5°C 34.0°F1.1°C 64% 2.5 mph NW4.0 kmh NW 3.4 mph5.5 kmh 29.91 in1012.9 mb 0.00 in0.0 mm 0.00 in0.0 mm 0.00 in0.0 mm
12:46 AM 45.3°F7.4°C 33.9°F1.1°C 64% 2.0 mph NW3.2 kmh NW 2.2 mph3.5 kmh 29.91 in1012.9 mb 0.00 in0.0 mm 0.00 in0.0 mm 0.00 in0.0 mm
12:45 AM 45.3°F7.4°C 33.9°F1.1°C 64% 2.2 mph NW3.5 kmh NW 2.2 mph3.5 kmh 29.91 in1012.9 mb 0.00 in0.0 mm 0.00 in0.0 mm 0.00 in0.0 mm
12:44 AM 45.1°F7.3°C 33.7°F0.9°C 64% 2.0 mph NW3.2 kmh NW 2.2 mph3.5 kmh 29.92 in1013.2 mb 0.00 in0.0 mm 0.00 in0.0 mm 0.00 in0.0 mm
12:43 AM 45.0°F7.2°C 33.6°F0.9°C 64% 2.2 mph NW3.5 kmh NW 2.2 mph3.5 kmh 29.91 in1012.9 mb 0.00 in0.0 mm 0.00 in0.0 mm 0.00 in0.0 mm
12:42 AM 45.0°F7.2°C 34.0°F1.1°C 65% 2.2 mph WNW3.5 kmh WNW 2.2 mph3.5 kmh 29.91 in1012.9 mb 0.00 in0.0 mm 0.00 in0.0 mm 0.00 in0.0 mm
12:41 AM 45.0°F7.2°C 34.0°F1.1°C 65% 1.8 mph NW2.9 kmh NW 2.2 mph3.5 kmh 29.91 in1012.9 mb 0.00 in0.0 mm 0.00 in0.0 mm 0.00 in0.0 mm
12:39 AM 45.1°F7.3°C 34.0°F1.1°C 65% 1.3 mph NW2.1 kmh NW 2.2 mph3.5 kmh 29.92 in1013.2 mb 0.00 in0.0 mm 0.00 in0.0 mm 0.00 in0.0 mm
12:38 AM 45.1°F7.3°C 33.7°F0.9°C 64% 2.0 mph NW3.2 kmh NW 2.2 mph3.5 kmh 29.91 in1012.9 mb 0.00 in0.0 mm 0.00 in0.0 mm 0.00 in0.0 mm
12:37 AM 45.3°F7.4°C 33.9°F1.1°C 64% 1.8 mph NW2.9 kmh NW 2.2 mph3.5 kmh 29.91 in1012.9 mb 0.00 in0.0 mm 0.00 in0.0 mm 0.00 in0.0 mm
12:36 AM 45.3°F7.4°C 33.9°F1.1°C 64% 1.8 mph NW2.9 kmh NW 2.2 mph3.5 kmh 29.91 in1012.9 mb 0.00 in0.0 mm 0.00 in0.0 mm 0.00 in0.0 mm
12:35 AM 45.3°F7.4°C 33.5°F0.8°C 63% 2.0 mph NW3.2 kmh NW 2.2 mph3.5 kmh 29.91 in1012.9 mb 0.00 in0.0 mm 0.00 in0.0 mm 0.00 in0.0 mm
12:34 AM 45.3°F7.4°C 33.5°F0.8°C 63% 2.0 mph NW3.2 kmh NW 2.2 mph3.5 kmh 29.91 in1012.9 mb 0.00 in0.0 mm 0.00 in0.0 mm 0.00 in0.0 mm
12:33 AM 45.1°F7.3°C 33.3°F0.7°C 63% 2.0 mph WNW3.2 kmh WNW 2.2 mph3.5 kmh 29.91 in1012.9 mb 0.00 in0.0 mm 0.00 in0.0 mm 0.00 in0.0 mm
12:32 AM 45.1°F7.3°C 33.3°F0.7°C 63% 2.0 mph WNW3.2 kmh WNW 2.2 mph3.5 kmh 29.91 in1012.9 mb 0.00 in0.0 mm 0.00 in0.0 mm 0.00 in0.0 mm
12:31 AM 45.3°F7.4°C 34.2°F1.2°C 65% 2.2 mph NW3.5 kmh NW 2.2 mph3.5 kmh 29.91 in1012.9 mb 0.00 in0.0 mm 0.00 in0.0 mm 0.00 in0.0 mm
12:29 AM 45.5°F7.5°C 34.0°F1.1°C 64% 2.2 mph WNW3.5 kmh WNW 2.2 mph3.5 kmh 29.91 in1012.9 mb 0.00 in0.0 mm 0.00 in0.0 mm 0.00 in0.0 mm
12:28 AM 45.5°F7.5°C 34.0°F1.1°C 64% 1.8 mph NW2.9 kmh NW 2.2 mph3.5 kmh 29.91 in1012.9 mb 0.00 in0.0 mm 0.00 in0.0 mm 0.00 in0.0 mm
12:27 AM 45.5°F7.5°C 33.6°F0.9°C 63% 2.2 mph WNW3.5 kmh WNW 2.2 mph3.5 kmh 29.92 in1013.2 mb 0.00 in0.0 mm 0.00 in0.0 mm 0.00 in0.0 mm
12:26 AM 45.5°F7.5°C 33.6°F0.9°C 63% 2.2 mph NW3.5 kmh NW 2.2 mph3.5 kmh 29.91 in1012.9 mb 0.00 in0.0 mm 0.00 in0.0 mm 0.00 in0.0 mm
12:25 AM 45.5°F7.5°C 34.0°F1.1°C 64% 2.2 mph WNW3.5 kmh WNW 2.2 mph3.5 kmh 29.91 in1012.9 mb 0.00 in0.0 mm 0.00 in0.0 mm 0.00 in0.0 mm
12:24 AM 45.5°F7.5°C 33.6°F0.9°C 63% 1.8 mph WNW2.9 kmh WNW 2.2 mph3.5 kmh 29.91 in1012.9 mb 0.00 in0.0 mm 0.00 in0.0 mm 0.00 in0.0 mm
12:23 AM 45.5°F7.5°C 34.0°F1.1°C 64% 2.2 mph NW3.5 kmh NW 2.2 mph3.5 kmh 29.91 in1012.9 mb 0.00 in0.0 mm 0.00 in0.0 mm 0.00 in0.0 mm
12:22 AM 45.7°F7.6°C 33.8°F1.0°C 63% 2.0 mph NW3.2 kmh NW 2.2 mph3.5 kmh 29.92 in1013.2 mb 0.00 in0.0 mm 0.00 in0.0 mm 0.00 in0.0 mm
12:21 AM 45.9°F7.7°C 33.6°F0.9°C 62% 1.8 mph WNW2.9 kmh WNW 2.2 mph3.5 kmh 29.91 in1012.9 mb 0.00 in0.0 mm 0.00 in0.0 mm 0.00 in0.0 mm
12:19 AM 45.7°F7.6°C 33.4°F0.8°C 62% 2.2 mph WNW3.5 kmh WNW 2.2 mph3.5 kmh 29.91 in1012.9 mb 0.00 in0.0 mm 0.00 in0.0 mm 0.00 in0.0 mm
12:18 AM 45.7°F7.6°C 33.4°F0.8°C 62% 1.8 mph WNW2.9 kmh WNW 2.2 mph3.5 kmh 29.91 in1012.9 mb 0.00 in0.0 mm 0.00 in0.0 mm 0.00 in0.0 mm
12:17 AM 45.9°F7.7°C 34.0°F1.1°C 63% 2.2 mph WNW3.5 kmh WNW 2.2 mph3.5 kmh 29.91 in1012.9 mb 0.00 in0.0 mm 0.00 in0.0 mm 0.00 in0.0 mm
12:16 AM 45.9°F7.7°C 33.6°F0.9°C 62% 1.8 mph WNW2.9 kmh WNW 2.2 mph3.5 kmh 29.91 in1012.9 mb 0.00 in0.0 mm 0.00 in0.0 mm 0.00 in0.0 mm
12:15 AM 45.7°F7.6°C 33.4°F0.8°C 62% 1.1 mph WNW1.8 kmh WNW 1.1 mph1.8 kmh 29.91 in1012.9 mb 0.00 in0.0 mm 0.00 in0.0 mm 0.00 in0.0 mm
12:13 AM 45.3°F7.4°C 33.1°F0.6°C 62% 2.2 mph WNW3.5 kmh WNW 2.2 mph3.5 kmh 29.92 in1013.2 mb 0.00 in0.0 mm 0.00 in0.0 mm 0.00 in0.0 mm
12:12 AM 45.3°F7.4°C 33.5°F0.8°C 63% 2.2 mph WNW3.5 kmh WNW 2.2 mph3.5 kmh 29.91 in1012.9 mb 0.00 in0.0 mm 0.00 in0.0 mm 0.00 in0.0 mm
12:10 AM 45.5°F7.5°C 33.6°F0.9°C 63% 2.2 mph NW3.5 kmh NW 2.2 mph3.5 kmh 29.91 in1012.9 mb 0.00 in0.0 mm 0.00 in0.0 mm 0.00 in0.0 mm
12:09 AM 45.5°F7.5°C 33.6°F0.9°C 63% 2.2 mph WNW3.5 kmh WNW 2.2 mph3.5 kmh 29.92 in1013.2 mb 0.00 in0.0 mm 0.00 in0.0 mm 0.00 in0.0 mm
12:08 AM 45.5°F7.5°C 33.2°F0.7°C 62% 1.8 mph WNW2.9 kmh WNW 2.2 mph3.5 kmh 29.91 in1012.9 mb 0.00 in0.0 mm 0.00 in0.0 mm 0.00 in0.0 mm
12:07 AM 45.9°F7.7°C 33.6°F0.9°C 62% 1.3 mph WNW2.1 kmh WNW 2.2 mph3.5 kmh 29.91 in1012.9 mb 0.00 in0.0 mm 0.00 in0.0 mm 0.00 in0.0 mm
12:06 AM 46.0°F7.8°C 33.7°F0.9°C 62% 2.2 mph WNW3.5 kmh WNW 2.2 mph3.5 kmh 29.91 in1012.9 mb 0.00 in0.0 mm 0.00 in0.0 mm 0.00 in0.0 mm
12:05 AM 46.4°F8.0°C 33.7°F0.9°C 61% 1.6 mph WNW2.6 kmh WNW 2.2 mph3.5 kmh 29.91 in1012.9 mb 0.00 in0.0 mm 0.00 in0.0 mm 0.00 in0.0 mm
12:04 AM 46.8°F8.2°C 34.1°F1.2°C 61% 1.6 mph WNW2.6 kmh WNW 2.2 mph3.5 kmh 29.91 in1012.9 mb 0.00 in0.0 mm 0.00 in0.0 mm 0.00 in0.0 mm
12:03 AM 46.8°F8.2°C 33.7°F0.9°C 60% 1.6 mph NW2.6 kmh NW 2.2 mph3.5 kmh 29.91 in1012.9 mb 0.00 in0.0 mm 0.00 in0.0 mm 0.00 in0.0 mm
12:02 AM 46.8°F8.2°C 33.2°F0.7°C 59% 0.9 mph NW1.4 kmh NW 1.1 mph1.8 kmh 29.92 in1013.2 mb 0.00 in0.0 mm 0.00 in0.0 mm 0.00 in0.0 mm
12:01 AM 46.4°F8.0°C 32.9°F0.5°C 59% 0.9 mph NW1.4 kmh NW 1.1 mph1.8 kmh 29.91 in1012.9 mb 0.00 in0.0 mm 0.00 in0.0 mm 0.00 in0.0 mm